DLH453 SKBO-EDDF
Flight info
| Callsign | DLH453 |
|---|---|
| Flight time | 10h 40m |
| Altitude | 32000 |
| Route | OSUSU4R GIKPU UQ120 DIBAM/N0498F330 DCT SELAN UG444 BOTES DCT LAMER/M084F330 DCT SHEIL/M084F350 DCT RNGRS DCT 38N060W 44N050W 48N040W 50N030W 51N020W DCT DINIM DCT ELSOX DCT LESLU/N0481F350 DCT OXLOW DCT KONAN UL607 SPI T180 NIVNU/N0431F230 T847 IMCOM IMCOM1B |
| Aircraft | A346/H-SDE2E3FGHIJ3J4J5M1RWXY/LB1D1 |
Departure
| Time | 2026-04-16 10:56 |
|---|---|
| Airport | El Dorado International Airport (SKBO) |
Arrival
| Time | 2026-04-16 21:37 |
|---|---|
| Airport | Frankfurt Main Airport (EDDF) |
| Time | Latitude | Longitude | Altitude | Speed | Heading |
|---|---|---|---|---|---|
| 2026-04-16 10:12 | 4.69946 | -74.14545 | 8381 ft | 0 kts | 185° |
| 2026-04-16 10:42 | 4.69963 | -74.14543 | 8380 ft | 4 kts | 193° |
| 2026-04-16 10:43 | 4.69986 | -74.14534 | 8379 ft | 4 kts | 214° |
| 2026-04-16 10:43 | 4.70001 | -74.14519 | 8380 ft | 4 kts | 246° |
| 2026-04-16 10:43 | 4.70004 | -74.14500 | 8380 ft | 4 kts | 281° |
| 2026-04-16 10:43 | 4.69995 | -74.14478 | 8380 ft | 4 kts | 304° |
| 2026-04-16 10:44 | 4.69991 | -74.14473 | 8380 ft | 0 kts | 307° |
| 2026-04-16 10:48 | 4.69992 | -74.14473 | 8380 ft | 0 kts | 307° |
| 2026-04-16 10:48 | 4.69999 | -74.14483 | 8380 ft | 5 kts | 307° |
| 2026-04-16 10:49 | 4.70032 | -74.14526 | 8380 ft | 11 kts | 308° |
| 2026-04-16 10:49 | 4.70090 | -74.14600 | 8379 ft | 15 kts | 312° |
| 2026-04-16 10:49 | 4.70162 | -74.14670 | 8379 ft | 13 kts | 329° |
| 2026-04-16 10:49 | 4.70239 | -74.14646 | 8380 ft | 13 kts | 30° |
| 2026-04-16 10:50 | 4.70317 | -74.14596 | 8379 ft | 13 kts | 37° |
| 2026-04-16 10:50 | 4.70385 | -74.14545 | 8379 ft | 12 kts | 37° |
| 2026-04-16 10:50 | 4.70450 | -74.14496 | 8379 ft | 11 kts | 37° |
| 2026-04-16 10:50 | 4.70519 | -74.14475 | 8379 ft | 10 kts | 340° |
| 2026-04-16 10:51 | 4.70572 | -74.14522 | 8379 ft | 10 kts | 310° |
| 2026-04-16 10:51 | 4.70613 | -74.14576 | 8379 ft | 9 kts | 306° |
| 2026-04-16 10:51 | 4.70649 | -74.14626 | 8379 ft | 8 kts | 306° |
| 2026-04-16 10:51 | 4.70682 | -74.14670 | 8379 ft | 8 kts | 306° |
| 2026-04-16 10:52 | 4.70722 | -74.14725 | 8379 ft | 11 kts | 306° |
| 2026-04-16 10:52 | 4.70777 | -74.14793 | 8379 ft | 14 kts | 308° |
| 2026-04-16 10:52 | 4.70838 | -74.14874 | 8379 ft | 15 kts | 307° |
| 2026-04-16 10:52 | 4.70905 | -74.14963 | 8379 ft | 17 kts | 307° |
| 2026-04-16 10:53 | 4.70977 | -74.15058 | 8378 ft | 18 kts | 307° |
| 2026-04-16 10:53 | 4.71052 | -74.15158 | 8380 ft | 18 kts | 307° |
| 2026-04-16 10:53 | 4.71152 | -74.15224 | 8378 ft | 18 kts | 354° |
| 2026-04-16 10:53 | 4.71274 | -74.15227 | 8380 ft | 14 kts | 15° |
| 2026-04-16 10:54 | 4.71299 | -74.15162 | 8378 ft | 11 kts | 117° |
| 2026-04-16 10:54 | 4.71288 | -74.15144 | 8375 ft | 0 kts | 124° |
| 2026-04-16 10:55 | 4.71239 | -74.15072 | 8376 ft | 38 kts | 126° |
| 2026-04-16 10:55 | 4.70960 | -74.14706 | 8376 ft | 92 kts | 127° |
| 2026-04-16 10:55 | 4.70467 | -74.14058 | 8376 ft | 140 kts | 127° |
| 2026-04-16 10:56 | 4.69794 | -74.13165 | 8377 ft | 180 kts | 127° |
| 2026-04-16 10:56 | 4.68984 | -74.12088 | 8443 ft | 200 kts | 127° |
| 2026-04-16 10:56 | 4.68163 | -74.10966 | 8863 ft | 200 kts | 123° |
| 2026-04-16 10:56 | 4.67475 | -74.09767 | 9289 ft | 202 kts | 112° |
| 2026-04-16 10:57 | 4.67081 | -74.08409 | 9743 ft | 204 kts | 95° |
| 2026-04-16 10:57 | 4.67177 | -74.06989 | 10148 ft | 206 kts | 70° |
| 2026-04-16 10:57 | 4.67965 | -74.05809 | 10441 ft | 207 kts | 33° |
| 2026-04-16 10:57 | 4.69315 | -74.05341 | 10680 ft | 211 kts | 356° |
| 2026-04-16 10:58 | 4.70702 | -74.05787 | 10943 ft | 213 kts | 326° |
| 2026-04-16 10:58 | 4.71864 | -74.06731 | 11265 ft | 218 kts | 324° |
| 2026-04-16 10:58 | 4.73215 | -74.07444 | 11565 ft | 223 kts | 343° |
| 2026-04-16 10:58 | 4.74765 | -74.07674 | 11838 ft | 227 kts | 2° |
| 2026-04-16 10:59 | 4.76322 | -74.07431 | 12087 ft | 228 kts | 16° |
| 2026-04-16 10:59 | 4.77850 | -74.06902 | 12204 ft | 236 kts | 20° |
| 2026-04-16 10:59 | 4.79416 | -74.06307 | 12285 ft | 247 kts | 21° |
| 2026-04-16 10:59 | 4.81052 | -74.05657 | 12359 ft | 257 kts | 22° |
| 2026-04-16 11:00 | 4.82747 | -74.04990 | 12522 ft | 265 kts | 20° |
| 2026-04-16 11:00 | 4.84530 | -74.04386 | 12593 ft | 278 kts | 18° |
| 2026-04-16 11:00 | 4.86428 | -74.03757 | 12550 ft | 296 kts | 18° |
| 2026-04-16 11:00 | 4.88432 | -74.03090 | 12593 ft | 311 kts | 18° |
| 2026-04-16 11:01 | 4.90523 | -74.02416 | 12787 ft | 321 kts | 18° |
| 2026-04-16 11:01 | 4.92680 | -74.01717 | 12980 ft | 331 kts | 18° |
| 2026-04-16 11:01 | 4.94897 | -74.00984 | 13178 ft | 341 kts | 18° |
| 2026-04-16 11:01 | 4.97179 | -74.00217 | 13361 ft | 351 kts | 18° |
| 2026-04-16 11:02 | 4.99523 | -73.99424 | 13533 ft | 361 kts | 18° |
| 2026-04-16 11:02 | 5.01948 | -73.98640 | 13714 ft | 371 kts | 16° |
| 2026-04-16 11:02 | 5.04470 | -73.97974 | 13917 ft | 380 kts | 14° |
| 2026-04-16 11:02 | 5.07072 | -73.97326 | 14092 ft | 390 kts | 14° |
| 2026-04-16 11:03 | 5.09701 | -73.96677 | 14254 ft | 399 kts | 13° |
| 2026-04-16 11:03 | 5.12425 | -73.96003 | 14443 ft | 407 kts | 14° |
| 2026-04-16 11:03 | 5.17967 | -73.94627 | 15076 ft | 413 kts | 14° |
| 2026-04-16 11:04 | 5.20762 | -73.93932 | 15436 ft | 415 kts | 14° |
| 2026-04-16 11:04 | 5.23574 | -73.93231 | 15822 ft | 417 kts | 14° |
| 2026-04-16 11:04 | 5.26395 | -73.92529 | 16191 ft | 419 kts | 14° |
| 2026-04-16 11:04 | 5.29240 | -73.91819 | 16512 ft | 422 kts | 14° |
| 2026-04-16 11:05 | 5.32093 | -73.91109 | 16856 ft | 424 kts | 13° |
| 2026-04-16 11:05 | 5.34964 | -73.90393 | 17199 ft | 426 kts | 13° |
| 2026-04-16 11:05 | 5.37851 | -73.89674 | 17539 ft | 428 kts | 13° |
| 2026-04-16 11:05 | 5.39774 | -73.89195 | 17760 ft | 430 kts | 13° |
| 2026-04-16 11:06 | 5.42686 | -73.88470 | 18060 ft | 432 kts | 13° |
| 2026-04-16 11:06 | 5.45607 | -73.87742 | 18390 ft | 434 kts | 13° |
| 2026-04-16 11:06 | 5.48550 | -73.87009 | 18680 ft | 436 kts | 13° |
| 2026-04-16 11:06 | 5.51504 | -73.86272 | 18953 ft | 439 kts | 13° |
| 2026-04-16 11:07 | 5.54483 | -73.85581 | 19213 ft | 441 kts | 11° |
| 2026-04-16 11:07 | 5.57489 | -73.84953 | 19472 ft | 442 kts | 11° |
| 2026-04-16 11:07 | 5.60506 | -73.84333 | 19758 ft | 443 kts | 11° |
| 2026-04-16 11:07 | 5.63530 | -73.83714 | 20031 ft | 445 kts | 11° |
| 2026-04-16 11:08 | 5.66571 | -73.83091 | 20309 ft | 447 kts | 11° |
| 2026-04-16 11:08 | 5.69623 | -73.82465 | 20577 ft | 448 kts | 11° |
| 2026-04-16 11:08 | 5.72685 | -73.81835 | 20819 ft | 450 kts | 11° |
| 2026-04-16 11:08 | 5.75780 | -73.81198 | 21094 ft | 452 kts | 11° |
| 2026-04-16 11:09 | 5.78867 | -73.80563 | 21350 ft | 453 kts | 11° |
| 2026-04-16 11:09 | 5.81957 | -73.79926 | 21600 ft | 455 kts | 11° |
| 2026-04-16 11:09 | 5.85066 | -73.79286 | 21827 ft | 456 kts | 11° |
| 2026-04-16 11:09 | 5.88173 | -73.78645 | 22089 ft | 458 kts | 11° |
| 2026-04-16 11:10 | 5.91373 | -73.77986 | 22331 ft | 460 kts | 11° |
| 2026-04-16 11:10 | 5.94468 | -73.77349 | 22570 ft | 461 kts | 11° |
| 2026-04-16 11:10 | 5.97620 | -73.76700 | 22800 ft | 463 kts | 11° |
| 2026-04-16 11:10 | 6.00782 | -73.76048 | 23005 ft | 465 kts | 11° |
| 2026-04-16 11:11 | 6.03954 | -73.75394 | 23226 ft | 466 kts | 11° |
| 2026-04-16 11:11 | 6.07142 | -73.74737 | 23443 ft | 468 kts | 11° |
| 2026-04-16 11:11 | 6.10329 | -73.74081 | 23659 ft | 469 kts | 11° |
| 2026-04-16 11:11 | 6.13537 | -73.73420 | 23845 ft | 470 kts | 10° |
| 2026-04-16 11:12 | 6.16747 | -73.72758 | 23979 ft | 472 kts | 10° |
| 2026-04-16 11:12 | 6.19963 | -73.72096 | 24161 ft | 473 kts | 10° |
| 2026-04-16 11:12 | 6.23193 | -73.71430 | 24348 ft | 474 kts | 10° |
| 2026-04-16 11:12 | 6.26433 | -73.70762 | 24533 ft | 475 kts | 10° |
| 2026-04-16 11:13 | 6.29673 | -73.70095 | 24678 ft | 476 kts | 10° |
| 2026-04-16 11:13 | 6.32926 | -73.69425 | 24854 ft | 478 kts | 10° |
| 2026-04-16 11:13 | 6.36182 | -73.68754 | 25021 ft | 479 kts | 10° |
| 2026-04-16 11:13 | 6.39451 | -73.68081 | 25198 ft | 480 kts | 10° |
| 2026-04-16 11:14 | 6.42724 | -73.67406 | 25339 ft | 481 kts | 10° |
| 2026-04-16 11:14 | 6.46015 | -73.66727 | 25522 ft | 483 kts | 10° |
| 2026-04-16 11:14 | 6.49308 | -73.66048 | 25693 ft | 484 kts | 10° |
| 2026-04-16 11:14 | 6.52617 | -73.65366 | 25859 ft | 485 kts | 10° |
| 2026-04-16 11:15 | 6.55927 | -73.64683 | 26054 ft | 487 kts | 10° |
| 2026-04-16 11:15 | 6.59252 | -73.63996 | 26183 ft | 489 kts | 10° |
| 2026-04-16 11:15 | 6.62588 | -73.63308 | 26347 ft | 490 kts | 10° |
| 2026-04-16 11:15 | 6.65931 | -73.62618 | 26517 ft | 491 kts | 10° |
| 2026-04-16 11:16 | 6.69283 | -73.61927 | 26691 ft | 492 kts | 9° |
| 2026-04-16 11:16 | 6.72642 | -73.61235 | 26842 ft | 493 kts | 9° |
| 2026-04-16 11:16 | 6.76015 | -73.60539 | 27005 ft | 495 kts | 9° |
| 2026-04-16 11:16 | 6.79395 | -73.59841 | 27157 ft | 496 kts | 9° |
| 2026-04-16 11:17 | 6.82779 | -73.59143 | 27317 ft | 497 kts | 9° |
| 2026-04-16 11:17 | 6.86173 | -73.58442 | 27447 ft | 498 kts | 9° |
| 2026-04-16 11:17 | 6.89574 | -73.57740 | 27588 ft | 500 kts | 9° |
| 2026-04-16 11:17 | 6.92989 | -73.57047 | 27738 ft | 500 kts | 8° |
| 2026-04-16 11:18 | 6.96431 | -73.56538 | 27883 ft | 500 kts | 4° |
| 2026-04-16 11:18 | 6.99906 | -73.56281 | 28026 ft | 500 kts | 360° |
| 2026-04-16 11:18 | 7.03380 | -73.56280 | 28161 ft | 500 kts | 356° |
| 2026-04-16 11:18 | 7.06820 | -73.56425 | 28310 ft | 500 kts | 355° |
| 2026-04-16 11:19 | 7.10296 | -73.56598 | 28455 ft | 501 kts | 355° |
| 2026-04-16 11:19 | 7.13788 | -73.56777 | 28589 ft | 503 kts | 355° |
| 2026-04-16 11:19 | 7.17279 | -73.56954 | 28738 ft | 504 kts | 355° |
| 2026-04-16 11:19 | 7.20793 | -73.57129 | 28876 ft | 505 kts | 355° |
| 2026-04-16 11:20 | 7.24302 | -73.57300 | 29009 ft | 506 kts | 355° |
| 2026-04-16 11:20 | 7.27822 | -73.57470 | 29181 ft | 506 kts | 355° |
| 2026-04-16 11:20 | 7.31335 | -73.57637 | 29393 ft | 505 kts | 354° |
| 2026-04-16 11:20 | 7.34845 | -73.57804 | 29605 ft | 505 kts | 354° |
| 2026-04-16 11:21 | 7.38345 | -73.57973 | 29810 ft | 504 kts | 354° |
| 2026-04-16 11:21 | 7.41851 | -73.58141 | 30000 ft | 504 kts | 354° |
| 2026-04-16 11:21 | 7.45351 | -73.58309 | 30163 ft | 503 kts | 354° |
| 2026-04-16 11:21 | 7.48842 | -73.58476 | 30320 ft | 503 kts | 354° |
| 2026-04-16 11:22 | 7.52335 | -73.58644 | 30480 ft | 502 kts | 354° |
| 2026-04-16 11:22 | 7.55830 | -73.58812 | 30630 ft | 502 kts | 354° |
| 2026-04-16 11:22 | 7.59317 | -73.58979 | 30805 ft | 502 kts | 354° |
| 2026-04-16 11:22 | 7.62795 | -73.59146 | 30958 ft | 501 kts | 354° |
| 2026-04-16 11:23 | 7.66279 | -73.59312 | 31113 ft | 501 kts | 354° |
| 2026-04-16 11:23 | 7.73256 | -73.59646 | 31274 ft | 503 kts | 354° |
| 2026-04-16 11:24 | 7.80257 | -73.59982 | 31524 ft | 504 kts | 354° |
| 2026-04-16 11:24 | 7.83759 | -73.60150 | 31652 ft | 504 kts | 354° |
| 2026-04-16 11:24 | 7.87252 | -73.60318 | 31774 ft | 504 kts | 354° |
| 2026-04-16 11:24 | 7.90766 | -73.60487 | 31888 ft | 505 kts | 354° |
| 2026-04-16 11:25 | 7.94274 | -73.60655 | 32011 ft | 505 kts | 354° |
| 2026-04-16 11:25 | 7.97792 | -73.60824 | 32129 ft | 505 kts | 354° |
| 2026-04-16 11:25 | 8.01259 | -73.60991 | 32252 ft | 506 kts | 354° |
| 2026-04-16 11:26 | 8.08309 | -73.61326 | 32432 ft | 508 kts | 353° |
| 2026-04-16 11:26 | 8.15371 | -73.61670 | 32629 ft | 508 kts | 353° |
| 2026-04-16 11:27 | 8.22463 | -73.61738 | 32812 ft | 512 kts | 358° |
| 2026-04-16 11:27 | 8.29596 | -73.61400 | 32923 ft | 513 kts | 359° |
| 2026-04-16 11:28 | 8.36724 | -73.61037 | 32935 ft | 513 kts | 359° |
| 2026-04-16 11:28 | 8.43874 | -73.60677 | 32934 ft | 514 kts | 358° |
| 2026-04-16 11:29 | 8.51023 | -73.60322 | 32934 ft | 514 kts | 358° |
| 2026-04-16 11:29 | 8.58166 | -73.59967 | 32935 ft | 514 kts | 358° |
| 2026-04-16 11:30 | 8.65307 | -73.59613 | 32938 ft | 514 kts | 358° |
| 2026-04-16 11:30 | 8.72406 | -73.59261 | 32942 ft | 514 kts | 358° |
| 2026-04-16 11:31 | 8.79570 | -73.58908 | 32945 ft | 516 kts | 359° |
| 2026-04-16 11:31 | 8.86753 | -73.58552 | 32941 ft | 517 kts | 359° |
| 2026-04-16 11:32 | 8.93944 | -73.58196 | 32931 ft | 517 kts | 359° |
| 2026-04-16 11:32 | 9.01135 | -73.57838 | 32930 ft | 517 kts | 359° |
| 2026-04-16 11:33 | 9.08314 | -73.57483 | 32943 ft | 517 kts | 359° |
| 2026-04-16 11:33 | 9.15525 | -73.57126 | 32930 ft | 520 kts | 358° |
| 2026-04-16 11:34 | 9.22742 | -73.56769 | 32931 ft | 519 kts | 359° |
| 2026-04-16 11:34 | 9.29956 | -73.56410 | 32914 ft | 519 kts | 359° |
| 2026-04-16 11:35 | 9.37174 | -73.56052 | 32920 ft | 519 kts | 359° |
| 2026-04-16 11:35 | 9.44392 | -73.55694 | 32919 ft | 519 kts | 358° |
| 2026-04-16 11:36 | 9.51629 | -73.55332 | 32915 ft | 522 kts | 358° |
| 2026-04-16 11:36 | 9.58885 | -73.54973 | 32908 ft | 522 kts | 358° |
| 2026-04-16 11:37 | 9.66148 | -73.54611 | 32904 ft | 522 kts | 358° |
| 2026-04-16 11:37 | 9.73358 | -73.54250 | 32904 ft | 522 kts | 358° |
| 2026-04-16 11:38 | 9.80616 | -73.53887 | 32911 ft | 522 kts | 358° |
| 2026-04-16 11:38 | 9.87892 | -73.53521 | 32909 ft | 523 kts | 358° |
| 2026-04-16 11:39 | 9.95175 | -73.53160 | 32910 ft | 524 kts | 358° |
| 2026-04-16 11:39 | 10.02451 | -73.52799 | 32927 ft | 524 kts | 358° |
| 2026-04-16 11:40 | 10.09732 | -73.52437 | 32921 ft | 524 kts | 358° |
| 2026-04-16 11:40 | 10.17007 | -73.52073 | 32951 ft | 523 kts | 358° |
| 2026-04-16 11:41 | 10.24266 | -73.51709 | 32949 ft | 522 kts | 358° |
| 2026-04-16 11:41 | 10.31516 | -73.51348 | 32959 ft | 521 kts | 357° |
| 2026-04-16 11:42 | 10.38762 | -73.50989 | 32950 ft | 521 kts | 358° |
| 2026-04-16 11:42 | 10.46006 | -73.50627 | 32970 ft | 521 kts | 358° |
| 2026-04-16 11:43 | 10.53202 | -73.50266 | 32968 ft | 521 kts | 358° |
| 2026-04-16 11:43 | 10.60444 | -73.49904 | 33027 ft | 521 kts | 358° |
| 2026-04-16 11:44 | 10.67692 | -73.49542 | 33022 ft | 521 kts | 358° |
| 2026-04-16 11:44 | 10.74938 | -73.49179 | 33027 ft | 521 kts | 358° |
| 2026-04-16 11:45 | 10.82187 | -73.48816 | 33045 ft | 521 kts | 358° |
| 2026-04-16 11:45 | 10.89424 | -73.48453 | 33029 ft | 520 kts | 358° |
| 2026-04-16 11:46 | 10.96636 | -73.48090 | 33043 ft | 519 kts | 357° |
| 2026-04-16 11:46 | 11.03844 | -73.47732 | 33014 ft | 519 kts | 357° |
| 2026-04-16 11:47 | 11.11065 | -73.47373 | 33008 ft | 521 kts | 357° |
| 2026-04-16 11:47 | 11.18294 | -73.47009 | 32983 ft | 520 kts | 357° |
| 2026-04-16 11:48 | 11.25510 | -73.46647 | 32988 ft | 518 kts | 357° |
| 2026-04-16 11:48 | 11.32702 | -73.46285 | 32947 ft | 518 kts | 357° |
| 2026-04-16 11:49 | 11.39896 | -73.45924 | 32944 ft | 517 kts | 357° |
| 2026-04-16 11:49 | 11.47085 | -73.45562 | 32934 ft | 517 kts | 357° |
| 2026-04-16 11:50 | 11.54278 | -73.45200 | 32926 ft | 517 kts | 357° |
| 2026-04-16 11:50 | 11.61417 | -73.44842 | 32928 ft | 516 kts | 358° |
| 2026-04-16 11:51 | 11.68584 | -73.44481 | 32923 ft | 515 kts | 358° |
| 2026-04-16 11:51 | 11.75749 | -73.44121 | 32924 ft | 515 kts | 358° |
| 2026-04-16 11:52 | 11.82912 | -73.43762 | 32929 ft | 515 kts | 357° |
| 2026-04-16 11:52 | 11.90079 | -73.43402 | 32928 ft | 515 kts | 357° |
| 2026-04-16 11:53 | 11.97233 | -73.43045 | 32929 ft | 513 kts | 358° |
| 2026-04-16 11:53 | 12.04364 | -73.42684 | 32928 ft | 513 kts | 358° |
| 2026-04-16 11:54 | 12.11496 | -73.42323 | 32928 ft | 513 kts | 358° |
| 2026-04-16 11:54 | 12.18624 | -73.41963 | 32930 ft | 513 kts | 358° |
| 2026-04-16 11:55 | 12.25704 | -73.41605 | 32941 ft | 513 kts | 358° |
| 2026-04-16 11:55 | 12.31667 | -73.41305 | 32931 ft | 511 kts | 358° |
| 2026-04-16 11:56 | 12.38767 | -73.40945 | 32932 ft | 511 kts | 358° |
| 2026-04-16 11:56 | 12.45822 | -73.40587 | 32932 ft | 511 kts | 358° |
| 2026-04-16 11:57 | 12.52927 | -73.40226 | 32929 ft | 511 kts | 358° |
| 2026-04-16 11:57 | 12.60026 | -73.39866 | 32933 ft | 511 kts | 358° |
| 2026-04-16 11:58 | 12.67084 | -73.39511 | 32931 ft | 505 kts | 359° |
| 2026-04-16 11:58 | 12.74090 | -73.39153 | 32932 ft | 504 kts | 359° |
| 2026-04-16 11:59 | 12.81095 | -73.38797 | 32935 ft | 504 kts | 359° |
| 2026-04-16 11:59 | 12.88104 | -73.38441 | 32938 ft | 504 kts | 359° |
| 2026-04-16 12:00 | 12.95108 | -73.38086 | 32938 ft | 504 kts | 358° |
| 2026-04-16 12:00 | 13.02023 | -73.37737 | 32944 ft | 501 kts | 359° |
| 2026-04-16 12:01 | 13.09033 | -73.37380 | 32945 ft | 500 kts | 359° |
| 2026-04-16 12:01 | 13.15945 | -73.37028 | 32944 ft | 501 kts | 359° |
| 2026-04-16 12:02 | 13.26390 | -73.36496 | 32941 ft | 501 kts | 359° |
| 2026-04-16 12:02 | 13.33343 | -73.36140 | 32947 ft | 500 kts | 359° |
| 2026-04-16 12:03 | 13.40296 | -73.35785 | 32946 ft | 500 kts | 359° |
| 2026-04-16 12:03 | 13.47253 | -73.35430 | 32946 ft | 500 kts | 359° |
| 2026-04-16 12:04 | 13.54212 | -73.35075 | 32944 ft | 500 kts | 359° |
| 2026-04-16 12:04 | 13.61171 | -73.34719 | 32944 ft | 501 kts | 359° |
| 2026-04-16 12:05 | 13.68122 | -73.34361 | 32956 ft | 500 kts | 358° |
| 2026-04-16 12:05 | 13.75062 | -73.34006 | 32952 ft | 499 kts | 358° |
| 2026-04-16 12:06 | 13.81957 | -73.33654 | 32951 ft | 499 kts | 358° |
| 2026-04-16 12:06 | 13.88942 | -73.33264 | 32946 ft | 500 kts | 0° |
| 2026-04-16 12:07 | 13.95837 | -73.32620 | 32949 ft | 501 kts | 1° |
| 2026-04-16 12:07 | 14.02778 | -73.31940 | 32951 ft | 501 kts | 1° |
| 2026-04-16 12:08 | 14.09718 | -73.31262 | 32953 ft | 501 kts | 1° |
| 2026-04-16 12:08 | 14.16657 | -73.30587 | 32950 ft | 501 kts | 1° |
| 2026-04-16 12:09 | 14.23600 | -73.29912 | 32943 ft | 501 kts | 1° |
| 2026-04-16 12:09 | 14.30568 | -73.29235 | 32950 ft | 504 kts | 1° |
| 2026-04-16 12:10 | 14.37524 | -73.28557 | 32961 ft | 502 kts | 1° |
| 2026-04-16 12:10 | 14.44472 | -73.27881 | 32954 ft | 501 kts | 1° |
| 2026-04-16 12:11 | 14.51417 | -73.27206 | 32956 ft | 501 kts | 1° |
| 2026-04-16 12:11 | 14.58365 | -73.26529 | 32960 ft | 501 kts | 1° |
| 2026-04-16 12:12 | 14.65255 | -73.25857 | 32960 ft | 501 kts | 1° |
| 2026-04-16 12:12 | 14.72205 | -73.25180 | 32967 ft | 500 kts | 1° |
| 2026-04-16 12:13 | 14.79125 | -73.24502 | 32963 ft | 499 kts | 1° |
| 2026-04-16 12:13 | 14.86044 | -73.23821 | 32960 ft | 499 kts | 1° |
| 2026-04-16 12:14 | 14.92966 | -73.23139 | 32960 ft | 499 kts | 1° |
| 2026-04-16 12:14 | 14.99889 | -73.22456 | 32961 ft | 499 kts | 1° |
| 2026-04-16 12:15 | 15.06783 | -73.21638 | 32969 ft | 499 kts | 5° |
| 2026-04-16 12:15 | 15.13623 | -73.20138 | 32965 ft | 502 kts | 11° |
| 2026-04-16 12:16 | 15.20329 | -73.18252 | 32969 ft | 503 kts | 11° |
| 2026-04-16 12:16 | 15.27068 | -73.16333 | 32968 ft | 503 kts | 11° |
| 2026-04-16 12:17 | 15.33814 | -73.14420 | 32968 ft | 503 kts | 11° |
| 2026-04-16 12:17 | 15.40538 | -73.12519 | 32964 ft | 498 kts | 12° |
| 2026-04-16 12:18 | 15.47227 | -73.10623 | 32970 ft | 498 kts | 12° |
| 2026-04-16 12:18 | 15.53911 | -73.08729 | 32975 ft | 497 kts | 12° |
| 2026-04-16 12:19 | 15.60589 | -73.06838 | 32973 ft | 497 kts | 12° |
| 2026-04-16 12:19 | 15.67261 | -73.04950 | 32973 ft | 497 kts | 12° |
| 2026-04-16 12:20 | 15.73927 | -73.03063 | 32977 ft | 495 kts | 12° |
| 2026-04-16 12:20 | 15.80567 | -73.01179 | 32978 ft | 495 kts | 12° |
| 2026-04-16 12:21 | 15.87205 | -72.99294 | 32975 ft | 495 kts | 12° |
| 2026-04-16 12:21 | 15.93798 | -72.97422 | 32974 ft | 495 kts | 12° |
| 2026-04-16 12:22 | 16.00439 | -72.95534 | 32993 ft | 495 kts | 12° |
| 2026-04-16 12:22 | 16.07084 | -72.93645 | 32990 ft | 495 kts | 12° |
| 2026-04-16 12:23 | 16.13734 | -72.91751 | 32985 ft | 495 kts | 12° |
| 2026-04-16 12:23 | 16.20379 | -72.89858 | 32983 ft | 495 kts | 12° |
| 2026-04-16 12:24 | 16.27026 | -72.87963 | 32982 ft | 495 kts | 12° |
| 2026-04-16 12:24 | 16.33677 | -72.86060 | 32995 ft | 495 kts | 12° |
| 2026-04-16 12:25 | 16.40303 | -72.84166 | 32987 ft | 493 kts | 12° |
| 2026-04-16 12:25 | 16.46909 | -72.82270 | 32988 ft | 492 kts | 12° |
| 2026-04-16 12:26 | 16.53515 | -72.80374 | 32989 ft | 492 kts | 12° |
| 2026-04-16 12:26 | 16.60074 | -72.78490 | 32988 ft | 492 kts | 12° |
| 2026-04-16 12:27 | 16.66684 | -72.76591 | 33001 ft | 492 kts | 13° |
| 2026-04-16 12:27 | 16.73262 | -72.74701 | 32991 ft | 489 kts | 13° |
| 2026-04-16 12:28 | 16.79822 | -72.72812 | 32992 ft | 489 kts | 13° |
| 2026-04-16 12:28 | 16.86383 | -72.70921 | 32995 ft | 489 kts | 13° |
| 2026-04-16 12:29 | 16.92943 | -72.69030 | 32995 ft | 489 kts | 13° |
| 2026-04-16 12:29 | 16.99526 | -72.67229 | 33013 ft | 488 kts | 10° |
| 2026-04-16 12:30 | 17.06161 | -72.65991 | 32997 ft | 483 kts | 7° |
| 2026-04-16 12:30 | 17.12802 | -72.64920 | 32994 ft | 482 kts | 7° |
| 2026-04-16 12:31 | 17.19435 | -72.63853 | 32992 ft | 482 kts | 7° |
| 2026-04-16 12:31 | 17.26070 | -72.62782 | 33001 ft | 482 kts | 7° |
| 2026-04-16 12:32 | 17.32657 | -72.61716 | 33000 ft | 482 kts | 7° |
| 2026-04-16 12:32 | 17.39292 | -72.60641 | 32995 ft | 482 kts | 7° |
| 2026-04-16 12:33 | 17.45937 | -72.59561 | 33008 ft | 485 kts | 6° |
| 2026-04-16 12:33 | 17.52625 | -72.58477 | 32997 ft | 486 kts | 6° |
| 2026-04-16 12:34 | 17.59321 | -72.57391 | 32999 ft | 486 kts | 6° |
| 2026-04-16 12:34 | 17.66000 | -72.56308 | 33007 ft | 485 kts | 7° |
| 2026-04-16 12:35 | 17.72664 | -72.55223 | 33011 ft | 483 kts | 7° |
| 2026-04-16 12:35 | 17.79299 | -72.54140 | 32999 ft | 483 kts | 7° |
| 2026-04-16 12:36 | 17.85943 | -72.53057 | 33012 ft | 483 kts | 7° |
| 2026-04-16 12:36 | 17.92530 | -72.51607 | 33012 ft | 485 kts | 13° |
| 2026-04-16 12:37 | 17.98960 | -72.49608 | 33008 ft | 484 kts | 15° |
| 2026-04-16 12:37 | 18.05376 | -72.47513 | 33011 ft | 482 kts | 15° |
| 2026-04-16 12:38 | 18.11779 | -72.45420 | 33012 ft | 482 kts | 15° |
| 2026-04-16 12:38 | 18.18176 | -72.43331 | 33002 ft | 482 kts | 15° |
| 2026-04-16 12:39 | 18.24578 | -72.41241 | 33000 ft | 482 kts | 15° |
| 2026-04-16 12:39 | 18.30970 | -72.39157 | 33001 ft | 480 kts | 16° |
| 2026-04-16 12:40 | 18.37328 | -72.37079 | 33004 ft | 477 kts | 16° |
| 2026-04-16 12:40 | 18.43617 | -72.35018 | 32994 ft | 476 kts | 16° |
| 2026-04-16 12:41 | 18.50001 | -72.32927 | 32999 ft | 477 kts | 16° |
| 2026-04-16 12:41 | 18.56296 | -72.30865 | 33001 ft | 477 kts | 16° |
| 2026-04-16 12:42 | 18.62637 | -72.28818 | 33005 ft | 475 kts | 16° |
| 2026-04-16 12:42 | 18.68957 | -72.26802 | 33000 ft | 474 kts | 16° |
| 2026-04-16 12:43 | 18.75267 | -72.24781 | 33004 ft | 475 kts | 16° |
| 2026-04-16 12:43 | 18.81620 | -72.22744 | 32991 ft | 478 kts | 16° |
| 2026-04-16 12:44 | 18.87987 | -72.20700 | 32983 ft | 478 kts | 16° |
| 2026-04-16 12:44 | 18.94355 | -72.18656 | 32989 ft | 476 kts | 16° |
| 2026-04-16 12:45 | 19.00679 | -72.16623 | 32987 ft | 474 kts | 16° |
| 2026-04-16 12:45 | 19.07010 | -72.14702 | 32989 ft | 474 kts | 15° |
| 2026-04-16 12:46 | 19.12288 | -72.13130 | 32992 ft | 474 kts | 15° |
| 2026-04-16 12:46 | 19.18631 | -72.11231 | 33003 ft | 474 kts | 15° |
| 2026-04-16 12:47 | 19.24975 | -72.09325 | 33008 ft | 473 kts | 15° |
| 2026-04-16 12:47 | 19.31267 | -72.07431 | 33006 ft | 469 kts | 16° |
| 2026-04-16 12:48 | 19.37546 | -72.05536 | 33006 ft | 469 kts | 16° |
| 2026-04-16 12:48 | 19.43820 | -72.03642 | 33004 ft | 469 kts | 16° |
| 2026-04-16 12:49 | 19.50104 | -72.01744 | 33005 ft | 469 kts | 16° |
| 2026-04-16 12:49 | 19.56338 | -71.99859 | 33006 ft | 469 kts | 16° |
| 2026-04-16 12:50 | 19.62654 | -71.97949 | 33001 ft | 468 kts | 16° |
| 2026-04-16 12:50 | 19.68917 | -71.96248 | 33005 ft | 468 kts | 14° |
| 2026-04-16 12:51 | 19.75249 | -71.94624 | 33005 ft | 468 kts | 14° |
| 2026-04-16 12:51 | 19.81584 | -71.92998 | 33014 ft | 468 kts | 14° |
| 2026-04-16 12:52 | 19.87911 | -71.91369 | 33017 ft | 468 kts | 14° |
| 2026-04-16 12:52 | 19.94239 | -71.89738 | 33037 ft | 468 kts | 14° |
| 2026-04-16 12:53 | 20.00574 | -71.88103 | 33032 ft | 468 kts | 14° |
| 2026-04-16 12:53 | 20.06904 | -71.86468 | 33034 ft | 468 kts | 14° |
| 2026-04-16 12:54 | 20.13234 | -71.84831 | 33039 ft | 468 kts | 14° |
| 2026-04-16 12:54 | 20.19569 | -71.83192 | 33027 ft | 468 kts | 14° |
| 2026-04-16 12:55 | 20.25902 | -71.81551 | 33033 ft | 468 kts | 14° |
| 2026-04-16 12:55 | 20.32232 | -71.79911 | 33038 ft | 468 kts | 14° |
| 2026-04-16 12:56 | 20.38568 | -71.78267 | 33037 ft | 468 kts | 14° |
| 2026-04-16 12:56 | 20.44823 | -71.76321 | 33038 ft | 468 kts | 18° |
| 2026-04-16 12:57 | 20.50993 | -71.74089 | 33036 ft | 468 kts | 19° |
| 2026-04-16 12:57 | 20.57121 | -71.71856 | 33036 ft | 468 kts | 19° |
| 2026-04-16 12:58 | 20.63287 | -71.69608 | 33036 ft | 468 kts | 19° |
| 2026-04-16 12:58 | 20.69452 | -71.67360 | 33037 ft | 468 kts | 19° |
| 2026-04-16 12:59 | 20.75625 | -71.65108 | 33037 ft | 468 kts | 19° |
| 2026-04-16 13:00 | 20.84882 | -71.61727 | 33038 ft | 469 kts | 19° |
| 2026-04-16 13:00 | 20.91055 | -71.59470 | 33041 ft | 469 kts | 19° |
| 2026-04-16 13:01 | 20.97190 | -71.57225 | 33039 ft | 469 kts | 19° |
| 2026-04-16 13:01 | 21.03404 | -71.54949 | 33045 ft | 470 kts | 19° |
| 2026-04-16 13:02 | 21.09567 | -71.52690 | 33036 ft | 471 kts | 19° |
| 2026-04-16 13:02 | 21.15776 | -71.50412 | 33042 ft | 472 kts | 19° |
| 2026-04-16 13:03 | 21.21986 | -71.48132 | 33042 ft | 472 kts | 19° |
| 2026-04-16 13:03 | 21.28199 | -71.45849 | 33039 ft | 472 kts | 19° |
| 2026-04-16 13:04 | 21.34420 | -71.43560 | 33042 ft | 472 kts | 19° |
| 2026-04-16 13:04 | 21.40638 | -71.41271 | 33037 ft | 472 kts | 19° |
| 2026-04-16 13:05 | 21.46852 | -71.38981 | 33042 ft | 472 kts | 19° |
| 2026-04-16 13:05 | 21.53065 | -71.36689 | 33045 ft | 472 kts | 19° |
| 2026-04-16 13:06 | 21.59247 | -71.34406 | 33044 ft | 472 kts | 19° |
| 2026-04-16 13:06 | 21.65471 | -71.32106 | 33046 ft | 472 kts | 19° |
| 2026-04-16 13:07 | 21.71687 | -71.29806 | 33049 ft | 472 kts | 19° |
| 2026-04-16 13:07 | 21.77901 | -71.27506 | 33047 ft | 472 kts | 19° |
| 2026-04-16 13:08 | 21.84115 | -71.25204 | 33051 ft | 472 kts | 19° |
| 2026-04-16 13:08 | 21.90327 | -71.22900 | 33051 ft | 472 kts | 19° |
| 2026-04-16 13:09 | 21.96548 | -71.20591 | 33050 ft | 472 kts | 19° |
| 2026-04-16 13:09 | 22.02764 | -71.18281 | 33052 ft | 473 kts | 19° |
| 2026-04-16 13:10 | 22.08989 | -71.15966 | 33050 ft | 473 kts | 19° |
| 2026-04-16 13:10 | 22.15210 | -71.13651 | 33054 ft | 473 kts | 19° |
| 2026-04-16 13:11 | 22.21431 | -71.11333 | 33056 ft | 473 kts | 19° |
| 2026-04-16 13:11 | 22.27656 | -71.09011 | 33058 ft | 473 kts | 19° |
| 2026-04-16 13:12 | 22.33874 | -71.06690 | 33057 ft | 473 kts | 19° |
| 2026-04-16 13:12 | 22.40060 | -71.04378 | 33059 ft | 473 kts | 19° |
| 2026-04-16 13:13 | 22.46279 | -71.02052 | 33057 ft | 473 kts | 19° |
| 2026-04-16 13:13 | 22.52501 | -70.99723 | 33065 ft | 473 kts | 19° |
| 2026-04-16 13:14 | 22.58714 | -70.97395 | 33062 ft | 473 kts | 19° |
| 2026-04-16 13:14 | 22.64945 | -70.95057 | 33061 ft | 474 kts | 19° |
| 2026-04-16 13:15 | 22.71183 | -70.92715 | 33068 ft | 474 kts | 19° |
| 2026-04-16 13:15 | 22.77413 | -70.90374 | 33069 ft | 474 kts | 19° |
| 2026-04-16 13:16 | 22.83644 | -70.88030 | 33076 ft | 474 kts | 19° |
| 2026-04-16 13:16 | 22.89877 | -70.85683 | 33070 ft | 475 kts | 19° |
| 2026-04-16 13:17 | 22.96084 | -70.83342 | 33079 ft | 475 kts | 19° |
| 2026-04-16 13:17 | 23.02335 | -70.80985 | 33078 ft | 475 kts | 19° |
| 2026-04-16 13:18 | 23.08580 | -70.78627 | 33078 ft | 475 kts | 19° |
| 2026-04-16 13:18 | 23.14823 | -70.76268 | 33077 ft | 475 kts | 19° |
| 2026-04-16 13:19 | 23.21066 | -70.73903 | 33081 ft | 475 kts | 18° |
| 2026-04-16 13:19 | 23.27303 | -70.71542 | 33082 ft | 475 kts | 18° |
| 2026-04-16 13:20 | 23.33557 | -70.69172 | 33085 ft | 475 kts | 18° |
| 2026-04-16 13:20 | 23.39756 | -70.66820 | 33086 ft | 475 kts | 18° |
| 2026-04-16 13:21 | 23.45994 | -70.64450 | 33090 ft | 475 kts | 18° |
| 2026-04-16 13:21 | 23.52238 | -70.62076 | 33091 ft | 475 kts | 18° |
| 2026-04-16 13:22 | 23.58485 | -70.59698 | 33098 ft | 475 kts | 18° |
| 2026-04-16 13:22 | 23.64726 | -70.57320 | 33096 ft | 475 kts | 18° |
| 2026-04-16 13:23 | 23.70966 | -70.54940 | 33094 ft | 475 kts | 18° |
| 2026-04-16 13:23 | 23.77208 | -70.52556 | 33099 ft | 475 kts | 18° |
| 2026-04-16 13:24 | 23.83458 | -70.50167 | 33096 ft | 475 kts | 18° |
| 2026-04-16 13:24 | 23.89695 | -70.47781 | 33099 ft | 475 kts | 18° |
| 2026-04-16 13:25 | 23.95943 | -70.45388 | 33098 ft | 475 kts | 18° |
| 2026-04-16 13:25 | 24.02185 | -70.42995 | 33104 ft | 475 kts | 18° |
| 2026-04-16 13:26 | 24.08408 | -70.40610 | 33105 ft | 471 kts | 19° |
| 2026-04-16 13:26 | 24.14535 | -70.38254 | 33108 ft | 469 kts | 19° |
| 2026-04-16 13:27 | 24.20691 | -70.35885 | 33110 ft | 469 kts | 19° |
| 2026-04-16 13:27 | 24.26852 | -70.33513 | 33112 ft | 469 kts | 19° |
| 2026-04-16 13:28 | 24.33024 | -70.31134 | 33112 ft | 469 kts | 19° |
| 2026-04-16 13:28 | 24.39155 | -70.28769 | 33112 ft | 466 kts | 19° |
| 2026-04-16 13:29 | 24.45277 | -70.26405 | 33116 ft | 466 kts | 19° |
| 2026-04-16 13:29 | 24.51401 | -70.24037 | 33116 ft | 466 kts | 19° |
| 2026-04-16 13:30 | 24.57514 | -70.21671 | 33118 ft | 466 kts | 19° |
| 2026-04-16 13:30 | 24.63635 | -70.19299 | 33124 ft | 466 kts | 19° |
| 2026-04-16 13:31 | 24.69752 | -70.16926 | 33125 ft | 466 kts | 19° |
| 2026-04-16 13:31 | 24.75834 | -70.14566 | 33123 ft | 466 kts | 19° |
| 2026-04-16 13:32 | 24.81962 | -70.12184 | 33127 ft | 466 kts | 19° |
| 2026-04-16 13:32 | 24.88084 | -70.09802 | 33122 ft | 466 kts | 19° |
| 2026-04-16 13:33 | 24.94192 | -70.07422 | 33126 ft | 465 kts | 20° |
| 2026-04-16 13:33 | 25.00169 | -70.04688 | 33135 ft | 465 kts | 25° |
| 2026-04-16 13:34 | 25.05896 | -70.01344 | 33126 ft | 466 kts | 29° |
| 2026-04-16 13:34 | 25.11497 | -69.97729 | 33134 ft | 466 kts | 29° |
| 2026-04-16 13:35 | 25.17081 | -69.94104 | 33133 ft | 465 kts | 30° |
| 2026-04-16 13:35 | 25.22618 | -69.90506 | 33132 ft | 464 kts | 30° |
| 2026-04-16 13:36 | 25.28186 | -69.86885 | 33133 ft | 464 kts | 30° |
| 2026-04-16 13:36 | 25.33757 | -69.83258 | 33141 ft | 465 kts | 29° |
| 2026-04-16 13:37 | 25.39342 | -69.79620 | 33139 ft | 465 kts | 29° |
| 2026-04-16 13:37 | 25.44919 | -69.75985 | 33144 ft | 465 kts | 30° |
| 2026-04-16 13:38 | 25.50486 | -69.72351 | 33138 ft | 464 kts | 30° |
| 2026-04-16 13:38 | 25.56044 | -69.68718 | 33147 ft | 464 kts | 30° |
| 2026-04-16 13:39 | 25.60664 | -69.65695 | 33140 ft | 464 kts | 30° |
| 2026-04-16 13:39 | 25.66219 | -69.62058 | 33149 ft | 464 kts | 30° |
| 2026-04-16 13:40 | 25.71780 | -69.58413 | 33150 ft | 463 kts | 30° |
| 2026-04-16 13:40 | 25.77322 | -69.54775 | 33150 ft | 462 kts | 30° |
| 2026-04-16 13:41 | 25.82829 | -69.51156 | 33153 ft | 463 kts | 30° |
| 2026-04-16 13:41 | 25.88387 | -69.47501 | 33151 ft | 464 kts | 30° |
| 2026-04-16 13:42 | 25.93950 | -69.43838 | 33151 ft | 464 kts | 30° |
| 2026-04-16 13:42 | 25.99498 | -69.40181 | 33156 ft | 462 kts | 30° |
| 2026-04-16 13:43 | 26.05030 | -69.36531 | 33156 ft | 462 kts | 30° |
| 2026-04-16 13:43 | 26.10551 | -69.32883 | 33159 ft | 462 kts | 30° |
| 2026-04-16 13:44 | 26.16080 | -69.29227 | 33159 ft | 462 kts | 30° |
| 2026-04-16 13:44 | 26.21569 | -69.25592 | 33164 ft | 462 kts | 30° |
| 2026-04-16 13:45 | 26.27095 | -69.21929 | 33165 ft | 462 kts | 30° |
| 2026-04-16 13:45 | 26.32623 | -69.18261 | 33171 ft | 463 kts | 30° |
| 2026-04-16 13:46 | 26.38178 | -69.14571 | 33168 ft | 465 kts | 30° |
| 2026-04-16 13:46 | 26.43736 | -69.10874 | 33165 ft | 465 kts | 30° |
| 2026-04-16 13:47 | 26.49297 | -69.07172 | 33167 ft | 464 kts | 30° |
| 2026-04-16 13:47 | 26.54841 | -69.03476 | 33167 ft | 463 kts | 30° |
| 2026-04-16 13:48 | 26.60377 | -68.99782 | 33170 ft | 463 kts | 30° |
| 2026-04-16 13:48 | 26.65874 | -68.96109 | 33170 ft | 463 kts | 30° |
| 2026-04-16 13:49 | 26.71412 | -68.92405 | 33173 ft | 463 kts | 30° |
| 2026-04-16 13:49 | 26.76940 | -68.88703 | 33173 ft | 462 kts | 30° |
| 2026-04-16 13:50 | 26.82445 | -68.85012 | 33183 ft | 462 kts | 30° |
| 2026-04-16 13:50 | 26.87988 | -68.81292 | 33177 ft | 465 kts | 30° |
| 2026-04-16 13:51 | 26.93542 | -68.77560 | 33178 ft | 465 kts | 30° |
| 2026-04-16 13:51 | 26.99094 | -68.73825 | 33178 ft | 465 kts | 30° |
| 2026-04-16 13:52 | 27.04638 | -68.70091 | 33178 ft | 464 kts | 30° |
| 2026-04-16 13:52 | 27.10171 | -68.66360 | 33181 ft | 463 kts | 30° |
| 2026-04-16 13:53 | 27.15704 | -68.62625 | 33181 ft | 463 kts | 30° |
| 2026-04-16 13:53 | 27.21231 | -68.58889 | 33183 ft | 463 kts | 30° |
| 2026-04-16 13:54 | 27.26723 | -68.55173 | 33184 ft | 462 kts | 30° |
| 2026-04-16 13:54 | 27.32222 | -68.51448 | 33191 ft | 462 kts | 30° |
| 2026-04-16 13:55 | 27.37748 | -68.47699 | 33187 ft | 465 kts | 30° |
| 2026-04-16 13:55 | 27.43294 | -68.43933 | 33189 ft | 465 kts | 30° |
| 2026-04-16 13:56 | 27.48837 | -68.40164 | 33188 ft | 465 kts | 30° |
| 2026-04-16 13:56 | 27.54369 | -68.36399 | 33190 ft | 463 kts | 30° |
| 2026-04-16 13:57 | 27.59872 | -68.32649 | 33191 ft | 462 kts | 30° |
| 2026-04-16 13:57 | 27.65383 | -68.28888 | 33192 ft | 462 kts | 30° |
| 2026-04-16 13:58 | 27.73641 | -68.23246 | 33192 ft | 462 kts | 30° |
| 2026-04-16 13:58 | 27.79135 | -68.19486 | 33198 ft | 461 kts | 30° |
| 2026-04-16 13:59 | 27.84640 | -68.15714 | 33196 ft | 464 kts | 30° |
| 2026-04-16 13:59 | 27.90124 | -68.11952 | 33195 ft | 464 kts | 30° |
| 2026-04-16 14:00 | 27.95651 | -68.08156 | 33199 ft | 464 kts | 30° |
| 2026-04-16 14:00 | 28.01161 | -68.04367 | 33200 ft | 464 kts | 30° |
| 2026-04-16 14:01 | 28.06674 | -68.00571 | 33200 ft | 463 kts | 30° |
| 2026-04-16 14:01 | 28.12184 | -67.96773 | 33203 ft | 463 kts | 30° |
| 2026-04-16 14:02 | 28.17686 | -67.92975 | 33203 ft | 463 kts | 30° |
| 2026-04-16 14:02 | 28.23158 | -67.89194 | 33205 ft | 463 kts | 30° |
| 2026-04-16 14:03 | 28.28658 | -67.85388 | 33205 ft | 462 kts | 30° |
| 2026-04-16 14:03 | 28.34149 | -67.81585 | 33205 ft | 462 kts | 30° |
| 2026-04-16 14:04 | 28.39641 | -67.77777 | 33208 ft | 462 kts | 30° |
| 2026-04-16 14:04 | 28.45123 | -67.73970 | 33211 ft | 462 kts | 30° |
| 2026-04-16 14:05 | 28.50612 | -67.70154 | 33210 ft | 462 kts | 30° |
| 2026-04-16 14:05 | 28.56092 | -67.66338 | 33213 ft | 461 kts | 30° |
| 2026-04-16 14:06 | 28.61568 | -67.62522 | 33215 ft | 461 kts | 30° |
| 2026-04-16 14:06 | 28.67037 | -67.58706 | 33216 ft | 461 kts | 30° |
| 2026-04-16 14:07 | 28.72512 | -67.54881 | 33219 ft | 461 kts | 30° |
| 2026-04-16 14:07 | 28.77957 | -67.51072 | 33222 ft | 463 kts | 30° |
| 2026-04-16 14:08 | 28.83493 | -67.47194 | 33219 ft | 464 kts | 30° |
| 2026-04-16 14:08 | 28.88956 | -67.43363 | 33219 ft | 464 kts | 30° |
| 2026-04-16 14:09 | 28.94460 | -67.39498 | 33221 ft | 464 kts | 30° |
| 2026-04-16 14:09 | 28.99959 | -67.35631 | 33219 ft | 462 kts | 30° |
| 2026-04-16 14:10 | 29.05434 | -67.31777 | 33220 ft | 461 kts | 30° |
| 2026-04-16 14:10 | 29.10899 | -67.27925 | 33224 ft | 461 kts | 30° |
| 2026-04-16 14:11 | 29.16365 | -67.24068 | 33224 ft | 461 kts | 30° |
| 2026-04-16 14:11 | 29.21831 | -67.20204 | 33234 ft | 462 kts | 30° |
| 2026-04-16 14:12 | 29.27311 | -67.16326 | 33231 ft | 462 kts | 30° |
| 2026-04-16 14:12 | 29.32784 | -67.12449 | 33228 ft | 462 kts | 30° |
| 2026-04-16 14:13 | 29.38219 | -67.08594 | 33231 ft | 462 kts | 30° |
| 2026-04-16 14:13 | 29.43691 | -67.04708 | 33233 ft | 462 kts | 30° |
| 2026-04-16 14:14 | 29.49157 | -67.00820 | 33233 ft | 461 kts | 30° |
| 2026-04-16 14:14 | 29.54614 | -66.96934 | 33229 ft | 461 kts | 30° |
| 2026-04-16 14:15 | 29.60096 | -66.93025 | 33233 ft | 461 kts | 30° |
| 2026-04-16 14:15 | 29.65550 | -66.89131 | 33247 ft | 461 kts | 30° |
| 2026-04-16 14:16 | 29.71009 | -66.85225 | 33236 ft | 462 kts | 30° |
| 2026-04-16 14:16 | 29.76461 | -66.81323 | 33238 ft | 461 kts | 30° |
| 2026-04-16 14:17 | 29.81915 | -66.77412 | 33240 ft | 461 kts | 30° |
| 2026-04-16 14:17 | 29.87362 | -66.73501 | 33240 ft | 461 kts | 30° |
| 2026-04-16 14:18 | 29.92854 | -66.69688 | 33242 ft | 460 kts | 28° |
| 2026-04-16 14:18 | 29.98400 | -66.66094 | 33244 ft | 460 kts | 28° |
| 2026-04-16 14:19 | 30.03981 | -66.62487 | 33246 ft | 460 kts | 28° |
| 2026-04-16 14:19 | 30.09566 | -66.58868 | 33246 ft | 460 kts | 28° |
| 2026-04-16 14:20 | 30.15147 | -66.55242 | 33255 ft | 461 kts | 28° |
| 2026-04-16 14:20 | 30.20732 | -66.51610 | 33252 ft | 460 kts | 28° |
| 2026-04-16 14:21 | 30.26310 | -66.47978 | 33250 ft | 460 kts | 28° |
| 2026-04-16 14:21 | 30.31890 | -66.44339 | 33248 ft | 460 kts | 28° |
| 2026-04-16 14:22 | 30.37469 | -66.40695 | 33251 ft | 460 kts | 28° |
| 2026-04-16 14:22 | 30.43048 | -66.37048 | 33252 ft | 460 kts | 28° |
| 2026-04-16 14:23 | 30.48607 | -66.33407 | 33251 ft | 459 kts | 28° |
| 2026-04-16 14:23 | 30.54180 | -66.29753 | 33251 ft | 459 kts | 28° |
| 2026-04-16 14:24 | 30.59744 | -66.26100 | 33257 ft | 460 kts | 28° |
| 2026-04-16 14:24 | 30.65314 | -66.22438 | 33262 ft | 460 kts | 28° |
| 2026-04-16 14:25 | 30.70890 | -66.18767 | 33257 ft | 460 kts | 28° |
| 2026-04-16 14:25 | 30.76464 | -66.15093 | 33259 ft | 460 kts | 28° |
| 2026-04-16 14:26 | 30.82000 | -66.11439 | 33260 ft | 460 kts | 28° |
| 2026-04-16 14:26 | 30.87573 | -66.07756 | 33259 ft | 460 kts | 28° |
| 2026-04-16 14:27 | 30.93142 | -66.04071 | 33260 ft | 460 kts | 28° |
| 2026-04-16 14:27 | 30.98709 | -66.00380 | 33262 ft | 460 kts | 28° |
| 2026-04-16 14:28 | 31.04274 | -65.96687 | 33262 ft | 460 kts | 28° |
| 2026-04-16 14:28 | 31.09839 | -65.92989 | 33279 ft | 460 kts | 28° |
| 2026-04-16 14:29 | 31.15384 | -65.89298 | 33265 ft | 462 kts | 28° |
| 2026-04-16 14:29 | 31.20974 | -65.85574 | 33263 ft | 462 kts | 28° |
| 2026-04-16 14:30 | 31.26562 | -65.81845 | 33264 ft | 462 kts | 28° |
| 2026-04-16 14:30 | 31.32152 | -65.78111 | 33264 ft | 462 kts | 28° |
| 2026-04-16 14:31 | 31.37736 | -65.74374 | 33263 ft | 462 kts | 28° |
| 2026-04-16 14:31 | 31.43320 | -65.70633 | 33264 ft | 462 kts | 28° |
| 2026-04-16 14:32 | 31.47959 | -65.67520 | 33266 ft | 462 kts | 28° |
| 2026-04-16 14:32 | 31.53534 | -65.63775 | 33266 ft | 462 kts | 28° |
| 2026-04-16 14:33 | 31.59112 | -65.60024 | 33271 ft | 463 kts | 28° |
| 2026-04-16 14:33 | 31.64711 | -65.56253 | 33266 ft | 465 kts | 28° |
| 2026-04-16 14:34 | 31.70326 | -65.52464 | 33267 ft | 465 kts | 28° |
| 2026-04-16 14:34 | 31.75933 | -65.48676 | 33264 ft | 465 kts | 28° |
| 2026-04-16 14:35 | 31.81502 | -65.44909 | 33266 ft | 464 kts | 28° |
| 2026-04-16 14:35 | 31.87091 | -65.41122 | 33269 ft | 464 kts | 28° |
| 2026-04-16 14:36 | 31.92681 | -65.37330 | 33271 ft | 464 kts | 28° |
| 2026-04-16 14:36 | 31.98274 | -65.33531 | 33268 ft | 464 kts | 29° |
| 2026-04-16 14:37 | 32.03860 | -65.29731 | 33288 ft | 463 kts | 29° |
| 2026-04-16 14:37 | 32.09467 | -65.25911 | 33271 ft | 467 kts | 29° |
| 2026-04-16 14:38 | 32.15103 | -65.22066 | 33277 ft | 467 kts | 29° |
| 2026-04-16 14:38 | 32.20728 | -65.18222 | 33264 ft | 467 kts | 29° |
| 2026-04-16 14:39 | 32.26346 | -65.14378 | 33278 ft | 466 kts | 29° |
| 2026-04-16 14:39 | 32.31952 | -65.10536 | 33263 ft | 466 kts | 29° |
| 2026-04-16 14:40 | 32.37565 | -65.06685 | 33277 ft | 466 kts | 29° |
| 2026-04-16 14:40 | 32.43135 | -65.02858 | 33268 ft | 465 kts | 29° |
| 2026-04-16 14:41 | 32.48732 | -64.99006 | 33272 ft | 465 kts | 29° |
| 2026-04-16 14:41 | 32.54340 | -64.95139 | 33264 ft | 467 kts | 29° |
| 2026-04-16 14:42 | 32.59958 | -64.91261 | 33262 ft | 467 kts | 29° |
| 2026-04-16 14:42 | 32.65568 | -64.87385 | 33265 ft | 466 kts | 29° |
| 2026-04-16 14:43 | 32.71170 | -64.83507 | 33275 ft | 466 kts | 29° |
| 2026-04-16 14:43 | 32.76766 | -64.79627 | 33273 ft | 466 kts | 29° |
| 2026-04-16 14:44 | 32.82364 | -64.75741 | 33275 ft | 466 kts | 29° |
| 2026-04-16 14:44 | 32.87961 | -64.71850 | 33282 ft | 465 kts | 29° |
| 2026-04-16 14:45 | 32.93556 | -64.67954 | 33269 ft | 465 kts | 29° |
| 2026-04-16 14:45 | 32.99141 | -64.64058 | 33275 ft | 465 kts | 29° |
| 2026-04-16 14:46 | 33.04730 | -64.60155 | 33270 ft | 465 kts | 30° |
| 2026-04-16 14:46 | 33.10282 | -64.56274 | 33280 ft | 466 kts | 30° |
| 2026-04-16 14:47 | 33.15872 | -64.52357 | 33264 ft | 466 kts | 30° |
| 2026-04-16 14:47 | 33.21461 | -64.48435 | 33280 ft | 466 kts | 30° |
| 2026-04-16 14:48 | 33.27051 | -64.44508 | 33274 ft | 466 kts | 30° |
| 2026-04-16 14:48 | 33.32637 | -64.40577 | 33267 ft | 466 kts | 30° |
| 2026-04-16 14:49 | 33.38229 | -64.36637 | 33280 ft | 466 kts | 30° |
| 2026-04-16 14:49 | 33.43810 | -64.32696 | 33280 ft | 466 kts | 30° |
| 2026-04-16 14:50 | 33.49403 | -64.28745 | 33274 ft | 466 kts | 30° |
| 2026-04-16 14:50 | 33.54985 | -64.24794 | 33276 ft | 466 kts | 30° |
| 2026-04-16 14:51 | 33.60574 | -64.20831 | 33269 ft | 466 kts | 30° |
| 2026-04-16 14:51 | 33.66127 | -64.16887 | 33268 ft | 466 kts | 30° |
| 2026-04-16 14:53 | 33.88508 | -64.00935 | 33274 ft | 468 kts | 30° |
| 2026-04-16 14:54 | 33.94112 | -63.96927 | 33271 ft | 469 kts | 30° |
| 2026-04-16 14:54 | 33.99727 | -63.92902 | 33270 ft | 469 kts | 30° |
| 2026-04-16 14:55 | 34.05336 | -63.88876 | 33270 ft | 469 kts | 30° |
| 2026-04-16 14:55 | 34.10952 | -63.84841 | 33267 ft | 470 kts | 30° |
| 2026-04-16 14:56 | 34.16569 | -63.80795 | 33284 ft | 470 kts | 30° |
| 2026-04-16 14:56 | 34.22184 | -63.76745 | 33266 ft | 470 kts | 30° |
| 2026-04-16 14:57 | 34.27807 | -63.72684 | 33276 ft | 471 kts | 31° |
| 2026-04-16 14:57 | 34.33446 | -63.68606 | 33273 ft | 473 kts | 31° |
| 2026-04-16 14:58 | 34.41925 | -63.62459 | 33265 ft | 473 kts | 31° |
| 2026-04-16 14:59 | 34.47567 | -63.58360 | 33270 ft | 473 kts | 31° |
| 2026-04-16 14:59 | 34.53196 | -63.54268 | 33264 ft | 475 kts | 31° |
| 2026-04-16 15:00 | 34.58869 | -63.50133 | 33264 ft | 475 kts | 31° |
| 2026-04-16 15:00 | 34.64531 | -63.45999 | 33282 ft | 475 kts | 31° |
| 2026-04-16 15:01 | 34.70210 | -63.41848 | 33279 ft | 477 kts | 31° |
| 2026-04-16 15:01 | 34.75903 | -63.37679 | 33262 ft | 479 kts | 31° |
| 2026-04-16 15:02 | 34.81616 | -63.33488 | 33262 ft | 479 kts | 31° |
| 2026-04-16 15:02 | 34.87316 | -63.29300 | 33260 ft | 479 kts | 31° |
| 2026-04-16 15:03 | 34.93042 | -63.25086 | 33258 ft | 480 kts | 31° |
| 2026-04-16 15:03 | 34.98749 | -63.20875 | 33265 ft | 480 kts | 31° |
| 2026-04-16 15:04 | 35.04404 | -63.16633 | 33263 ft | 480 kts | 33° |
| 2026-04-16 15:04 | 35.09803 | -63.11825 | 33266 ft | 482 kts | 39° |
| 2026-04-16 15:05 | 35.14976 | -63.06584 | 33258 ft | 483 kts | 40° |
| 2026-04-16 15:05 | 35.20137 | -63.01285 | 33390 ft | 486 kts | 40° |
| 2026-04-16 15:05 | 35.22725 | -62.98628 | 33726 ft | 484 kts | 40° |
| 2026-04-16 15:06 | 35.25295 | -62.95987 | 34093 ft | 481 kts | 40° |
| 2026-04-16 15:06 | 35.27855 | -62.93356 | 34415 ft | 479 kts | 40° |
| 2026-04-16 15:06 | 35.30405 | -62.90733 | 34684 ft | 478 kts | 40° |
| 2026-04-16 15:06 | 35.32952 | -62.88111 | 34939 ft | 477 kts | 40° |
| 2026-04-16 15:07 | 35.35493 | -62.85494 | 35184 ft | 477 kts | 40° |
| 2026-04-16 15:07 | 35.40576 | -62.80254 | 35254 ft | 479 kts | 39° |
| 2026-04-16 15:08 | 35.45680 | -62.74984 | 35254 ft | 479 kts | 40° |
| 2026-04-16 15:08 | 35.50774 | -62.69716 | 35254 ft | 478 kts | 40° |
| 2026-04-16 15:09 | 35.55859 | -62.64448 | 35252 ft | 478 kts | 40° |
| 2026-04-16 15:09 | 35.60939 | -62.59175 | 35262 ft | 478 kts | 40° |
| 2026-04-16 15:10 | 35.66026 | -62.53884 | 35252 ft | 479 kts | 39° |
| 2026-04-16 15:10 | 35.71093 | -62.48608 | 35255 ft | 480 kts | 40° |
| 2026-04-16 15:11 | 35.76191 | -62.43290 | 35251 ft | 481 kts | 40° |
| 2026-04-16 15:11 | 35.81290 | -62.37957 | 35252 ft | 480 kts | 39° |
| 2026-04-16 15:12 | 35.86388 | -62.32620 | 35253 ft | 480 kts | 39° |
| 2026-04-16 15:12 | 35.91485 | -62.27276 | 35251 ft | 480 kts | 39° |
| 2026-04-16 15:13 | 35.96579 | -62.21924 | 35256 ft | 481 kts | 39° |
| 2026-04-16 15:13 | 36.01676 | -62.16556 | 35247 ft | 481 kts | 39° |
| 2026-04-16 15:14 | 36.06779 | -62.11177 | 35242 ft | 482 kts | 39° |
| 2026-04-16 15:14 | 36.11847 | -62.05827 | 35243 ft | 482 kts | 39° |
| 2026-04-16 15:15 | 36.16946 | -62.00426 | 35242 ft | 484 kts | 39° |
| 2026-04-16 15:15 | 36.22067 | -61.95000 | 35243 ft | 484 kts | 39° |
| 2026-04-16 15:16 | 36.27189 | -61.89566 | 35246 ft | 484 kts | 39° |
| 2026-04-16 15:16 | 36.32297 | -61.84129 | 35244 ft | 484 kts | 39° |
| 2026-04-16 15:17 | 36.37413 | -61.78674 | 35234 ft | 485 kts | 39° |
| 2026-04-16 15:17 | 36.42548 | -61.73195 | 35237 ft | 486 kts | 39° |
| 2026-04-16 15:18 | 36.47637 | -61.67754 | 35238 ft | 486 kts | 39° |
| 2026-04-16 15:18 | 36.52764 | -61.62257 | 35235 ft | 486 kts | 39° |
| 2026-04-16 15:19 | 36.57891 | -61.56757 | 35236 ft | 486 kts | 39° |
| 2026-04-16 15:19 | 36.63019 | -61.51243 | 35233 ft | 487 kts | 39° |
| 2026-04-16 15:20 | 36.68141 | -61.45719 | 35233 ft | 487 kts | 38° |
| 2026-04-16 15:20 | 36.73269 | -61.40186 | 35232 ft | 487 kts | 38° |
| 2026-04-16 15:21 | 36.78391 | -61.34650 | 35231 ft | 487 kts | 39° |
| 2026-04-16 15:21 | 36.83514 | -61.29100 | 35233 ft | 487 kts | 38° |
| 2026-04-16 15:22 | 36.88638 | -61.23538 | 35228 ft | 487 kts | 38° |
| 2026-04-16 15:22 | 36.93725 | -61.18008 | 35226 ft | 487 kts | 38° |
| 2026-04-16 15:23 | 36.98841 | -61.12436 | 35224 ft | 487 kts | 38° |
| 2026-04-16 15:23 | 37.03953 | -61.06858 | 35224 ft | 487 kts | 38° |
| 2026-04-16 15:24 | 37.09067 | -61.01268 | 35224 ft | 487 kts | 39° |
| 2026-04-16 15:24 | 37.14170 | -60.95678 | 35224 ft | 487 kts | 39° |
| 2026-04-16 15:25 | 37.18412 | -60.91016 | 35223 ft | 487 kts | 38° |
| 2026-04-16 15:25 | 37.23512 | -60.85413 | 35219 ft | 487 kts | 38° |
| 2026-04-16 15:26 | 37.28615 | -60.79795 | 35216 ft | 487 kts | 38° |
| 2026-04-16 15:26 | 37.33714 | -60.74168 | 35225 ft | 487 kts | 38° |
| 2026-04-16 15:27 | 37.38810 | -60.68534 | 35216 ft | 487 kts | 38° |
| 2026-04-16 15:27 | 37.43898 | -60.62902 | 35213 ft | 487 kts | 38° |
| 2026-04-16 15:28 | 37.48981 | -60.57261 | 35215 ft | 487 kts | 38° |
| 2026-04-16 15:28 | 37.54061 | -60.51614 | 35208 ft | 487 kts | 38° |
| 2026-04-16 15:29 | 37.59139 | -60.45959 | 35211 ft | 487 kts | 38° |
| 2026-04-16 15:29 | 37.64190 | -60.40322 | 35212 ft | 487 kts | 38° |
| 2026-04-16 15:30 | 37.69263 | -60.34648 | 35206 ft | 487 kts | 38° |
| 2026-04-16 15:30 | 37.74344 | -60.28957 | 35199 ft | 487 kts | 38° |
| 2026-04-16 15:31 | 37.79415 | -60.23266 | 35210 ft | 487 kts | 38° |
| 2026-04-16 15:31 | 37.84493 | -60.17555 | 35201 ft | 488 kts | 38° |
| 2026-04-16 15:32 | 37.89572 | -60.11829 | 35191 ft | 488 kts | 38° |
| 2026-04-16 15:32 | 37.94647 | -60.06096 | 35191 ft | 488 kts | 38° |
| 2026-04-16 15:33 | 37.99673 | -60.00265 | 35193 ft | 490 kts | 41° |
| 2026-04-16 15:33 | 38.04338 | -59.93918 | 35190 ft | 492 kts | 45° |
| 2026-04-16 15:34 | 38.08888 | -59.87407 | 35192 ft | 492 kts | 45° |
| 2026-04-16 15:34 | 38.13430 | -59.80884 | 35195 ft | 493 kts | 45° |
| 2026-04-16 15:35 | 38.17982 | -59.74346 | 35182 ft | 493 kts | 45° |
| 2026-04-16 15:35 | 38.22532 | -59.67803 | 35176 ft | 493 kts | 45° |
| 2026-04-16 15:36 | 38.27050 | -59.61294 | 35170 ft | 494 kts | 45° |
| 2026-04-16 15:36 | 38.31596 | -59.54730 | 35169 ft | 494 kts | 45° |
| 2026-04-16 15:37 | 38.36137 | -59.48162 | 35179 ft | 494 kts | 45° |
| 2026-04-16 15:37 | 38.40676 | -59.41580 | 35169 ft | 494 kts | 45° |
| 2026-04-16 15:38 | 38.45219 | -59.34982 | 35167 ft | 495 kts | 45° |
| 2026-04-16 15:38 | 38.49764 | -59.28364 | 35168 ft | 494 kts | 45° |
| 2026-04-16 15:39 | 38.54294 | -59.21757 | 35164 ft | 493 kts | 45° |
| 2026-04-16 15:39 | 38.58812 | -59.15155 | 35161 ft | 494 kts | 45° |
| 2026-04-16 15:40 | 38.63336 | -59.08531 | 35161 ft | 494 kts | 45° |
| 2026-04-16 15:40 | 38.67852 | -59.01900 | 35168 ft | 494 kts | 45° |
| 2026-04-16 15:41 | 38.72364 | -58.95260 | 35160 ft | 494 kts | 45° |
| 2026-04-16 15:41 | 38.76879 | -58.88608 | 35156 ft | 494 kts | 45° |
| 2026-04-16 15:42 | 38.81388 | -58.81951 | 35165 ft | 494 kts | 45° |
| 2026-04-16 15:42 | 38.85884 | -58.75295 | 35152 ft | 497 kts | 45° |
| 2026-04-16 15:43 | 38.90412 | -58.68581 | 35146 ft | 497 kts | 45° |
| 2026-04-16 15:43 | 38.94943 | -58.61847 | 35162 ft | 497 kts | 45° |
| 2026-04-16 15:44 | 38.99473 | -58.55098 | 35146 ft | 499 kts | 45° |
| 2026-04-16 15:44 | 39.04011 | -58.48324 | 35140 ft | 499 kts | 45° |
| 2026-04-16 15:45 | 39.08537 | -58.41551 | 35156 ft | 498 kts | 45° |
| 2026-04-16 15:45 | 39.13058 | -58.34772 | 35145 ft | 499 kts | 45° |
| 2026-04-16 15:46 | 39.17583 | -58.27976 | 35137 ft | 499 kts | 45° |
| 2026-04-16 15:46 | 39.22099 | -58.21178 | 35149 ft | 499 kts | 45° |
| 2026-04-16 15:47 | 39.26610 | -58.14366 | 35136 ft | 499 kts | 45° |
| 2026-04-16 15:47 | 39.31119 | -58.07550 | 35132 ft | 499 kts | 45° |
| 2026-04-16 15:48 | 39.35625 | -58.00723 | 35141 ft | 499 kts | 44° |
| 2026-04-16 15:48 | 39.40124 | -57.93889 | 35376 ft | 502 kts | 44° |
| 2026-04-16 15:48 | 39.42381 | -57.90453 | 35677 ft | 500 kts | 44° |
| 2026-04-16 15:49 | 39.44623 | -57.87035 | 36016 ft | 496 kts | 44° |
| 2026-04-16 15:49 | 39.49079 | -57.80235 | 36124 ft | 494 kts | 44° |
| 2026-04-16 15:50 | 39.53529 | -57.73435 | 36114 ft | 495 kts | 44° |
| 2026-04-16 15:50 | 39.57987 | -57.66610 | 36118 ft | 495 kts | 44° |
| 2026-04-16 15:51 | 39.62427 | -57.59791 | 36125 ft | 495 kts | 44° |
| 2026-04-16 15:51 | 39.66871 | -57.52953 | 36116 ft | 496 kts | 44° |
| 2026-04-16 15:52 | 39.71321 | -57.46093 | 36111 ft | 496 kts | 44° |
| 2026-04-16 15:52 | 39.75765 | -57.39224 | 36113 ft | 497 kts | 44° |
| 2026-04-16 15:53 | 39.80220 | -57.32329 | 36104 ft | 498 kts | 44° |
| 2026-04-16 15:53 | 39.84679 | -57.25406 | 36101 ft | 499 kts | 44° |
| 2026-04-16 15:54 | 39.89133 | -57.18474 | 36098 ft | 499 kts | 44° |
| 2026-04-16 15:54 | 39.93587 | -57.11528 | 36099 ft | 499 kts | 44° |
| 2026-04-16 15:55 | 39.98014 | -57.04617 | 36100 ft | 499 kts | 45° |
| 2026-04-16 15:55 | 40.02465 | -56.97640 | 36107 ft | 501 kts | 45° |
| 2026-04-16 15:56 | 40.06933 | -56.90626 | 36096 ft | 502 kts | 45° |
| 2026-04-16 15:56 | 40.11398 | -56.83600 | 36092 ft | 502 kts | 45° |
| 2026-04-16 15:57 | 40.15866 | -56.76547 | 36094 ft | 503 kts | 44° |
| 2026-04-16 15:57 | 40.20339 | -56.69480 | 36089 ft | 504 kts | 45° |
| 2026-04-16 15:58 | 40.24811 | -56.62397 | 36104 ft | 504 kts | 44° |
| 2026-04-16 15:58 | 40.29279 | -56.55298 | 36091 ft | 505 kts | 44° |
| 2026-04-16 15:59 | 40.35957 | -56.44671 | 36080 ft | 505 kts | 44° |
| 2026-04-16 15:59 | 40.40422 | -56.37528 | 36082 ft | 506 kts | 44° |
| 2026-04-16 16:00 | 40.44887 | -56.30387 | 36081 ft | 506 kts | 44° |
| 2026-04-16 16:00 | 40.49354 | -56.23225 | 36078 ft | 506 kts | 44° |
| 2026-04-16 16:01 | 40.53806 | -56.16053 | 36076 ft | 505 kts | 43° |
| 2026-04-16 16:01 | 40.58252 | -56.08894 | 36072 ft | 505 kts | 43° |
| 2026-04-16 16:02 | 40.62695 | -56.01722 | 36087 ft | 505 kts | 43° |
| 2026-04-16 16:02 | 40.67123 | -55.94544 | 36074 ft | 504 kts | 43° |
| 2026-04-16 16:03 | 40.71548 | -55.87367 | 36068 ft | 504 kts | 43° |
| 2026-04-16 16:03 | 40.75968 | -55.80178 | 36088 ft | 504 kts | 43° |
| 2026-04-16 16:04 | 40.80377 | -55.72984 | 36066 ft | 504 kts | 43° |
| 2026-04-16 16:04 | 40.84781 | -55.65790 | 36061 ft | 504 kts | 43° |
| 2026-04-16 16:05 | 40.89184 | -55.58574 | 36078 ft | 504 kts | 43° |
| 2026-04-16 16:05 | 40.93546 | -55.51407 | 36061 ft | 503 kts | 42° |
| 2026-04-16 16:06 | 40.97935 | -55.44187 | 36063 ft | 503 kts | 43° |
| 2026-04-16 16:06 | 41.02316 | -55.36959 | 36060 ft | 503 kts | 42° |
| 2026-04-16 16:07 | 41.06729 | -55.29659 | 36055 ft | 503 kts | 42° |
| 2026-04-16 16:07 | 41.11068 | -55.22466 | 36047 ft | 502 kts | 42° |
| 2026-04-16 16:08 | 41.15422 | -55.15234 | 36047 ft | 501 kts | 42° |
| 2026-04-16 16:08 | 41.19779 | -55.07979 | 36044 ft | 502 kts | 42° |
| 2026-04-16 16:09 | 41.24127 | -55.00721 | 36044 ft | 502 kts | 42° |
| 2026-04-16 16:09 | 41.28470 | -54.93452 | 36052 ft | 500 kts | 42° |
| 2026-04-16 16:10 | 41.32796 | -54.86192 | 36041 ft | 500 kts | 42° |
| 2026-04-16 16:10 | 41.37121 | -54.78921 | 36038 ft | 500 kts | 43° |
| 2026-04-16 16:11 | 41.41443 | -54.71642 | 36050 ft | 501 kts | 43° |
| 2026-04-16 16:11 | 41.45763 | -54.64344 | 36038 ft | 501 kts | 43° |
| 2026-04-16 16:12 | 41.49355 | -54.58259 | 36037 ft | 502 kts | 43° |
| 2026-04-16 16:12 | 41.53674 | -54.50932 | 36043 ft | 504 kts | 43° |
| 2026-04-16 16:13 | 41.58041 | -54.43511 | 36034 ft | 509 kts | 44° |
| 2026-04-16 16:13 | 41.62411 | -54.36051 | 36031 ft | 509 kts | 44° |
| 2026-04-16 16:14 | 41.66779 | -54.28573 | 36041 ft | 512 kts | 43° |
| 2026-04-16 16:14 | 41.71182 | -54.21030 | 36031 ft | 515 kts | 43° |
| 2026-04-16 16:15 | 41.75592 | -54.13453 | 36027 ft | 515 kts | 43° |
| 2026-04-16 16:15 | 41.79999 | -54.05855 | 36042 ft | 516 kts | 43° |
| 2026-04-16 16:16 | 41.84417 | -53.98227 | 36032 ft | 517 kts | 43° |
| 2026-04-16 16:16 | 41.88834 | -53.90585 | 36028 ft | 518 kts | 43° |
| 2026-04-16 16:17 | 41.93219 | -53.82974 | 36034 ft | 517 kts | 43° |
| 2026-04-16 16:17 | 41.97612 | -53.75330 | 36027 ft | 517 kts | 43° |
| 2026-04-16 16:18 | 42.02006 | -53.67668 | 36026 ft | 517 kts | 43° |
| 2026-04-16 16:18 | 42.06386 | -53.60007 | 36050 ft | 515 kts | 43° |
| 2026-04-16 16:19 | 42.10746 | -53.52362 | 36034 ft | 514 kts | 43° |
| 2026-04-16 16:19 | 42.15107 | -53.44698 | 36028 ft | 514 kts | 43° |
| 2026-04-16 16:20 | 42.19457 | -53.37039 | 36039 ft | 513 kts | 44° |
| 2026-04-16 16:20 | 42.23793 | -53.29376 | 36032 ft | 513 kts | 44° |
| 2026-04-16 16:21 | 42.28123 | -53.21705 | 36012 ft | 513 kts | 44° |
| 2026-04-16 16:21 | 42.32448 | -53.14034 | 36029 ft | 512 kts | 44° |
| 2026-04-16 16:22 | 42.36759 | -53.06356 | 36027 ft | 512 kts | 44° |
| 2026-04-16 16:22 | 42.41061 | -52.98674 | 36025 ft | 512 kts | 44° |
| 2026-04-16 16:23 | 42.45362 | -52.90975 | 36025 ft | 512 kts | 44° |
| 2026-04-16 16:23 | 42.49635 | -52.83309 | 36026 ft | 512 kts | 44° |
| 2026-04-16 16:24 | 42.53923 | -52.75597 | 36025 ft | 512 kts | 44° |
| 2026-04-16 16:24 | 42.58209 | -52.67869 | 36048 ft | 511 kts | 45° |
| 2026-04-16 16:25 | 42.62474 | -52.60157 | 36026 ft | 510 kts | 45° |
| 2026-04-16 16:25 | 42.66738 | -52.52429 | 36028 ft | 510 kts | 45° |
| 2026-04-16 16:26 | 42.70988 | -52.44698 | 36039 ft | 511 kts | 45° |
| 2026-04-16 16:26 | 42.75246 | -52.36942 | 36032 ft | 511 kts | 45° |
| 2026-04-16 16:27 | 42.79504 | -52.29166 | 36034 ft | 511 kts | 45° |
| 2026-04-16 16:27 | 42.83752 | -52.21381 | 36056 ft | 514 kts | 44° |
| 2026-04-16 16:28 | 42.88031 | -52.13526 | 36048 ft | 516 kts | 44° |
| 2026-04-16 16:28 | 42.92307 | -52.05656 | 36047 ft | 516 kts | 44° |
| 2026-04-16 16:29 | 42.96553 | -51.97816 | 36059 ft | 518 kts | 44° |
| 2026-04-16 16:29 | 43.00844 | -51.89876 | 36055 ft | 519 kts | 45° |
| 2026-04-16 16:30 | 43.05135 | -51.81911 | 36058 ft | 520 kts | 45° |
| 2026-04-16 16:30 | 43.09421 | -51.73934 | 36061 ft | 520 kts | 45° |
| 2026-04-16 16:31 | 43.13711 | -51.65932 | 36066 ft | 521 kts | 45° |
| 2026-04-16 16:31 | 43.17999 | -51.57905 | 36061 ft | 521 kts | 45° |
| 2026-04-16 16:32 | 43.22281 | -51.49872 | 36092 ft | 521 kts | 45° |
| 2026-04-16 16:32 | 43.26551 | -51.41837 | 36075 ft | 521 kts | 45° |
| 2026-04-16 16:33 | 43.30819 | -51.33787 | 36079 ft | 521 kts | 45° |
| 2026-04-16 16:33 | 43.35080 | -51.25726 | 36122 ft | 521 kts | 45° |
| 2026-04-16 16:34 | 43.39330 | -51.17663 | 36096 ft | 520 kts | 45° |
| 2026-04-16 16:34 | 43.43574 | -51.09591 | 36092 ft | 520 kts | 45° |
| 2026-04-16 16:35 | 43.47811 | -51.01510 | 36122 ft | 520 kts | 45° |
| 2026-04-16 16:35 | 43.52045 | -50.93412 | 36106 ft | 520 kts | 45° |
| 2026-04-16 16:36 | 43.56272 | -50.85307 | 36100 ft | 520 kts | 46° |
| 2026-04-16 16:36 | 43.60495 | -50.77186 | 36141 ft | 520 kts | 46° |
| 2026-04-16 16:37 | 43.64708 | -50.69060 | 36110 ft | 520 kts | 46° |
| 2026-04-16 16:37 | 43.68891 | -50.60971 | 36104 ft | 520 kts | 46° |
| 2026-04-16 16:38 | 43.73097 | -50.52813 | 36110 ft | 520 kts | 46° |
| 2026-04-16 16:38 | 43.77300 | -50.44641 | 36112 ft | 520 kts | 46° |
| 2026-04-16 16:39 | 43.81491 | -50.36466 | 36112 ft | 521 kts | 46° |
| 2026-04-16 16:39 | 43.85680 | -50.28274 | 36112 ft | 521 kts | 46° |
| 2026-04-16 16:40 | 43.89866 | -50.20066 | 36126 ft | 520 kts | 46° |
| 2026-04-16 16:40 | 43.94043 | -50.11841 | 36125 ft | 521 kts | 46° |
| 2026-04-16 16:41 | 43.98211 | -50.03613 | 36123 ft | 521 kts | 46° |
| 2026-04-16 16:41 | 44.02331 | -49.95313 | 36139 ft | 522 kts | 48° |
| 2026-04-16 16:42 | 44.06326 | -49.86863 | 36131 ft | 523 kts | 49° |
| 2026-04-16 16:42 | 44.10321 | -49.78364 | 36129 ft | 523 kts | 49° |
| 2026-04-16 16:43 | 44.14288 | -49.69931 | 36153 ft | 523 kts | 49° |
| 2026-04-16 16:43 | 44.18277 | -49.61441 | 36146 ft | 523 kts | 49° |
| 2026-04-16 16:44 | 44.22267 | -49.52923 | 36130 ft | 524 kts | 49° |
| 2026-04-16 16:44 | 44.26247 | -49.44401 | 36168 ft | 524 kts | 49° |
| 2026-04-16 16:45 | 44.30223 | -49.35868 | 36144 ft | 524 kts | 49° |
| 2026-04-16 16:45 | 44.34170 | -49.27369 | 36145 ft | 524 kts | 49° |
| 2026-04-16 16:46 | 44.38167 | -49.18738 | 36152 ft | 524 kts | 49° |
| 2026-04-16 16:46 | 44.42103 | -49.10214 | 36161 ft | 524 kts | 49° |
| 2026-04-16 16:47 | 44.46056 | -49.01627 | 36152 ft | 524 kts | 50° |
| 2026-04-16 16:47 | 44.50006 | -48.93023 | 36153 ft | 525 kts | 50° |
| 2026-04-16 16:48 | 44.53947 | -48.84415 | 36165 ft | 524 kts | 50° |
| 2026-04-16 16:48 | 44.57877 | -48.75800 | 36158 ft | 524 kts | 50° |
| 2026-04-16 16:49 | 44.61801 | -48.67172 | 36157 ft | 524 kts | 50° |
| 2026-04-16 16:49 | 44.65719 | -48.58542 | 36187 ft | 522 kts | 51° |
| 2026-04-16 16:50 | 44.69615 | -48.49924 | 36172 ft | 521 kts | 51° |
| 2026-04-16 16:50 | 44.73500 | -48.41300 | 36167 ft | 521 kts | 51° |
| 2026-04-16 16:51 | 44.77352 | -48.32731 | 36197 ft | 521 kts | 51° |
| 2026-04-16 16:51 | 44.81209 | -48.24130 | 36173 ft | 518 kts | 51° |
| 2026-04-16 16:52 | 44.85051 | -48.15523 | 36176 ft | 518 kts | 51° |
| 2026-04-16 16:52 | 44.88885 | -48.06912 | 36176 ft | 518 kts | 51° |
| 2026-04-16 16:53 | 44.92712 | -47.98306 | 36185 ft | 515 kts | 52° |
| 2026-04-16 16:53 | 44.96515 | -47.89710 | 36183 ft | 515 kts | 52° |
| 2026-04-16 16:54 | 45.00309 | -47.81108 | 36186 ft | 515 kts | 52° |
| 2026-04-16 16:54 | 45.04093 | -47.72508 | 36186 ft | 515 kts | 52° |
| 2026-04-16 16:55 | 45.07875 | -47.63888 | 36192 ft | 515 kts | 52° |
| 2026-04-16 16:55 | 45.11650 | -47.55257 | 36188 ft | 515 kts | 52° |
| 2026-04-16 16:56 | 45.15421 | -47.46616 | 36212 ft | 514 kts | 53° |
| 2026-04-16 16:56 | 45.19141 | -47.38060 | 36183 ft | 512 kts | 53° |
| 2026-04-16 16:57 | 45.24742 | -47.25121 | 36204 ft | 512 kts | 53° |
| 2026-04-16 16:58 | 45.28467 | -47.16490 | 36212 ft | 511 kts | 53° |
| 2026-04-16 16:58 | 45.32171 | -47.07879 | 36204 ft | 510 kts | 53° |
| 2026-04-16 16:59 | 45.35871 | -46.99248 | 36208 ft | 510 kts | 53° |
| 2026-04-16 16:59 | 45.39560 | -46.90617 | 36208 ft | 510 kts | 54° |
| 2026-04-16 17:00 | 45.43235 | -46.81996 | 36219 ft | 508 kts | 54° |
| 2026-04-16 17:00 | 45.46897 | -46.73373 | 36216 ft | 508 kts | 54° |
| 2026-04-16 17:01 | 45.50552 | -46.64744 | 36216 ft | 508 kts | 54° |
| 2026-04-16 17:01 | 45.54203 | -46.56100 | 36234 ft | 507 kts | 54° |
| 2026-04-16 17:02 | 45.57225 | -46.48923 | 36221 ft | 506 kts | 54° |
| 2026-04-16 17:02 | 45.61439 | -46.38884 | 36220 ft | 506 kts | 54° |
| 2026-04-16 17:03 | 45.65056 | -46.30239 | 36218 ft | 506 kts | 54° |
| 2026-04-16 17:03 | 45.68665 | -46.21589 | 36226 ft | 505 kts | 54° |
| 2026-04-16 17:04 | 45.71657 | -46.14392 | 36215 ft | 505 kts | 54° |
| 2026-04-16 17:04 | 45.75252 | -46.05724 | 36219 ft | 505 kts | 54° |
| 2026-04-16 17:05 | 45.78835 | -45.97058 | 36225 ft | 505 kts | 55° |
| 2026-04-16 17:05 | 45.82408 | -45.88390 | 36220 ft | 505 kts | 55° |
| 2026-04-16 17:06 | 45.85979 | -45.79698 | 36220 ft | 505 kts | 55° |
| 2026-04-16 17:06 | 45.89538 | -45.71008 | 36219 ft | 505 kts | 55° |
| 2026-04-16 17:07 | 45.93091 | -45.62307 | 36223 ft | 504 kts | 55° |
| 2026-04-16 17:07 | 45.96635 | -45.53600 | 36219 ft | 504 kts | 55° |
| 2026-04-16 17:08 | 46.00170 | -45.44887 | 36215 ft | 504 kts | 55° |
| 2026-04-16 17:08 | 46.03705 | -45.36148 | 36238 ft | 504 kts | 55° |
| 2026-04-16 17:09 | 46.07227 | -45.27413 | 36223 ft | 504 kts | 55° |
| 2026-04-16 17:09 | 46.10739 | -45.18673 | 36221 ft | 504 kts | 56° |
| 2026-04-16 17:10 | 46.14225 | -45.09972 | 36222 ft | 504 kts | 56° |
| 2026-04-16 17:10 | 46.17728 | -45.01201 | 36233 ft | 504 kts | 56° |
| 2026-04-16 17:11 | 46.21222 | -44.92423 | 36222 ft | 504 kts | 56° |
| 2026-04-16 17:11 | 46.24707 | -44.83641 | 36223 ft | 504 kts | 56° |
| 2026-04-16 17:12 | 46.28187 | -44.74845 | 36228 ft | 504 kts | 56° |
| 2026-04-16 17:12 | 46.31663 | -44.66029 | 36228 ft | 504 kts | 56° |
| 2026-04-16 17:13 | 46.35127 | -44.57215 | 36226 ft | 504 kts | 56° |
| 2026-04-16 17:13 | 46.38592 | -44.48370 | 36224 ft | 504 kts | 56° |
| 2026-04-16 17:14 | 46.42043 | -44.39534 | 36234 ft | 503 kts | 56° |
| 2026-04-16 17:14 | 46.45499 | -44.30652 | 36223 ft | 504 kts | 56° |
| 2026-04-16 17:15 | 46.48941 | -44.21781 | 36224 ft | 504 kts | 56° |
| 2026-04-16 17:15 | 46.52356 | -44.12949 | 36226 ft | 504 kts | 56° |
| 2026-04-16 17:16 | 46.55782 | -44.04062 | 36231 ft | 503 kts | 56° |
| 2026-04-16 17:16 | 46.59200 | -43.95165 | 36223 ft | 503 kts | 56° |
| 2026-04-16 17:17 | 46.62612 | -43.86256 | 36221 ft | 503 kts | 57° |
| 2026-04-16 17:17 | 46.66017 | -43.77332 | 36238 ft | 503 kts | 57° |
| 2026-04-16 17:18 | 46.69416 | -43.68398 | 36223 ft | 503 kts | 57° |
| 2026-04-16 17:18 | 46.72806 | -43.59457 | 36223 ft | 503 kts | 57° |
| 2026-04-16 17:19 | 46.76189 | -43.50505 | 36216 ft | 503 kts | 57° |
| 2026-04-16 17:19 | 46.79544 | -43.41599 | 36227 ft | 503 kts | 57° |
| 2026-04-16 17:20 | 46.82912 | -43.32627 | 36218 ft | 503 kts | 57° |
| 2026-04-16 17:20 | 46.86273 | -43.23642 | 36215 ft | 503 kts | 57° |
| 2026-04-16 17:21 | 46.89628 | -43.14644 | 36214 ft | 503 kts | 57° |
| 2026-04-16 17:21 | 46.92974 | -43.05642 | 36214 ft | 503 kts | 57° |
| 2026-04-16 17:22 | 46.96315 | -42.96622 | 36215 ft | 503 kts | 57° |
| 2026-04-16 17:22 | 46.99648 | -42.87593 | 36208 ft | 503 kts | 57° |
| 2026-04-16 17:23 | 47.02975 | -42.78549 | 36221 ft | 504 kts | 57° |
| 2026-04-16 17:23 | 47.06311 | -42.69452 | 36569 ft | 505 kts | 57° |
| 2026-04-16 17:23 | 47.07970 | -42.64916 | 36839 ft | 504 kts | 57° |
| 2026-04-16 17:24 | 47.09626 | -42.60380 | 37036 ft | 504 kts | 58° |
| 2026-04-16 17:24 | 47.11286 | -42.55824 | 37202 ft | 506 kts | 58° |
| 2026-04-16 17:24 | 47.12944 | -42.51268 | 37201 ft | 506 kts | 58° |
| 2026-04-16 17:25 | 47.16267 | -42.42114 | 37212 ft | 506 kts | 58° |
| 2026-04-16 17:25 | 47.19576 | -42.32963 | 37205 ft | 506 kts | 58° |
| 2026-04-16 17:26 | 47.22881 | -42.23792 | 37201 ft | 506 kts | 58° |
| 2026-04-16 17:26 | 47.26152 | -42.14684 | 37197 ft | 506 kts | 58° |
| 2026-04-16 17:27 | 47.29441 | -42.05496 | 37199 ft | 507 kts | 58° |
| 2026-04-16 17:27 | 47.32726 | -41.96285 | 37197 ft | 507 kts | 58° |
| 2026-04-16 17:28 | 47.36003 | -41.87066 | 37194 ft | 507 kts | 58° |
| 2026-04-16 17:28 | 47.39276 | -41.77828 | 37204 ft | 507 kts | 58° |
| 2026-04-16 17:29 | 47.42543 | -41.68569 | 37194 ft | 507 kts | 58° |
| 2026-04-16 17:29 | 47.45801 | -41.59308 | 37190 ft | 507 kts | 58° |
| 2026-04-16 17:30 | 47.49033 | -41.50085 | 37181 ft | 507 kts | 58° |
| 2026-04-16 17:30 | 47.52276 | -41.40799 | 37173 ft | 508 kts | 58° |
| 2026-04-16 17:31 | 47.55514 | -41.31494 | 37182 ft | 508 kts | 59° |
| 2026-04-16 17:31 | 47.58750 | -41.22162 | 37181 ft | 508 kts | 59° |
| 2026-04-16 17:32 | 47.61974 | -41.12831 | 37191 ft | 508 kts | 59° |
| 2026-04-16 17:32 | 47.65194 | -41.03478 | 37184 ft | 509 kts | 59° |
| 2026-04-16 17:33 | 47.68409 | -40.94103 | 37178 ft | 509 kts | 59° |
| 2026-04-16 17:33 | 47.71620 | -40.84708 | 37176 ft | 509 kts | 59° |
| 2026-04-16 17:34 | 47.74816 | -40.75325 | 37194 ft | 509 kts | 59° |
| 2026-04-16 17:34 | 47.77992 | -40.65964 | 37170 ft | 509 kts | 59° |
| 2026-04-16 17:35 | 47.81195 | -40.56490 | 37168 ft | 509 kts | 59° |
| 2026-04-16 17:35 | 47.84379 | -40.47035 | 37167 ft | 509 kts | 59° |
| 2026-04-16 17:36 | 47.87530 | -40.37642 | 37176 ft | 510 kts | 59° |
| 2026-04-16 17:36 | 47.90700 | -40.28158 | 37168 ft | 510 kts | 59° |
| 2026-04-16 17:37 | 47.93858 | -40.18669 | 37160 ft | 510 kts | 60° |
| 2026-04-16 17:37 | 47.97011 | -40.09153 | 37161 ft | 510 kts | 60° |
| 2026-04-16 17:38 | 48.00084 | -39.99568 | 37167 ft | 512 kts | 63° |
| 2026-04-16 17:38 | 48.02700 | -39.89622 | 37161 ft | 514 kts | 66° |
| 2026-04-16 17:39 | 48.05205 | -39.79591 | 37145 ft | 514 kts | 66° |
| 2026-04-16 17:39 | 48.07700 | -39.69557 | 37158 ft | 514 kts | 66° |
| 2026-04-16 17:40 | 48.10197 | -39.59502 | 37154 ft | 515 kts | 66° |
| 2026-04-16 17:40 | 48.12694 | -39.49419 | 37152 ft | 515 kts | 66° |
| 2026-04-16 17:41 | 48.15180 | -39.39333 | 37147 ft | 515 kts | 66° |
| 2026-04-16 17:41 | 48.17656 | -39.29245 | 37145 ft | 515 kts | 66° |
| 2026-04-16 17:42 | 48.20127 | -39.19129 | 37153 ft | 516 kts | 66° |
| 2026-04-16 17:42 | 48.22577 | -39.09056 | 37141 ft | 516 kts | 66° |
| 2026-04-16 17:43 | 48.25034 | -38.98908 | 37137 ft | 517 kts | 66° |
| 2026-04-16 17:43 | 48.27483 | -38.88747 | 37156 ft | 517 kts | 66° |
| 2026-04-16 17:44 | 48.29927 | -38.78556 | 37142 ft | 518 kts | 66° |
| 2026-04-16 17:44 | 48.32363 | -38.68357 | 37135 ft | 518 kts | 66° |
| 2026-04-16 17:45 | 48.34791 | -38.58139 | 37134 ft | 518 kts | 66° |
| 2026-04-16 17:45 | 48.37211 | -38.47908 | 37148 ft | 519 kts | 66° |
| 2026-04-16 17:46 | 48.39625 | -38.37656 | 37134 ft | 519 kts | 67° |
| 2026-04-16 17:46 | 48.42033 | -38.27381 | 37130 ft | 519 kts | 67° |
| 2026-04-16 17:47 | 48.44416 | -38.17164 | 37126 ft | 519 kts | 67° |
| 2026-04-16 17:47 | 48.46803 | -38.06880 | 37143 ft | 520 kts | 67° |
| 2026-04-16 17:48 | 48.49184 | -37.96572 | 37121 ft | 520 kts | 67° |
| 2026-04-16 17:48 | 48.51558 | -37.86244 | 37120 ft | 520 kts | 67° |
| 2026-04-16 17:49 | 48.53921 | -37.75916 | 37129 ft | 520 kts | 67° |
| 2026-04-16 17:49 | 48.56274 | -37.65579 | 37123 ft | 520 kts | 67° |
| 2026-04-16 17:50 | 48.58619 | -37.55229 | 37125 ft | 520 kts | 67° |
| 2026-04-16 17:50 | 48.60956 | -37.44863 | 37129 ft | 520 kts | 68° |
| 2026-04-16 17:51 | 48.63267 | -37.34562 | 37113 ft | 520 kts | 68° |
| 2026-04-16 17:51 | 48.65583 | -37.24182 | 37124 ft | 520 kts | 68° |
| 2026-04-16 17:52 | 48.67893 | -37.13789 | 37121 ft | 520 kts | 68° |
| 2026-04-16 17:52 | 48.70191 | -37.03395 | 37118 ft | 520 kts | 68° |
| 2026-04-16 17:53 | 48.72484 | -36.92972 | 37118 ft | 520 kts | 68° |
| 2026-04-16 17:53 | 48.74380 | -36.84309 | 37128 ft | 521 kts | 68° |
| 2026-04-16 17:54 | 48.76654 | -36.73872 | 37122 ft | 521 kts | 68° |
| 2026-04-16 17:54 | 48.79290 | -36.61714 | 37114 ft | 521 kts | 68° |
| 2026-04-16 17:55 | 48.81545 | -36.51254 | 37115 ft | 521 kts | 68° |
| 2026-04-16 17:55 | 48.83427 | -36.42481 | 37121 ft | 521 kts | 68° |
| 2026-04-16 17:56 | 48.85666 | -36.31995 | 37117 ft | 521 kts | 68° |
| 2026-04-16 17:56 | 48.89004 | -36.16263 | 37110 ft | 521 kts | 68° |
| 2026-04-16 17:57 | 48.91206 | -36.05816 | 37132 ft | 521 kts | 68° |
| 2026-04-16 17:57 | 48.93413 | -35.95289 | 37113 ft | 521 kts | 68° |
| 2026-04-16 17:58 | 48.95610 | -35.84762 | 37110 ft | 521 kts | 69° |
| 2026-04-16 17:58 | 48.97797 | -35.74221 | 37110 ft | 521 kts | 69° |
| 2026-04-16 17:59 | 48.99972 | -35.63687 | 37129 ft | 521 kts | 69° |
| 2026-04-16 17:59 | 49.02143 | -35.53109 | 37107 ft | 521 kts | 69° |
| 2026-04-16 18:00 | 49.04301 | -35.42543 | 37105 ft | 521 kts | 69° |
| 2026-04-16 18:00 | 49.06432 | -35.32055 | 37107 ft | 521 kts | 69° |
| 2026-04-16 18:01 | 49.08584 | -35.21409 | 37127 ft | 521 kts | 69° |
| 2026-04-16 18:01 | 49.10711 | -35.10827 | 37102 ft | 521 kts | 69° |
| 2026-04-16 18:02 | 49.12827 | -35.00240 | 37100 ft | 521 kts | 69° |
| 2026-04-16 18:02 | 49.14922 | -34.89700 | 37096 ft | 521 kts | 69° |
| 2026-04-16 18:03 | 49.17020 | -34.79094 | 37115 ft | 521 kts | 69° |
| 2026-04-16 18:03 | 49.19109 | -34.68471 | 37097 ft | 521 kts | 69° |
| 2026-04-16 18:04 | 49.21185 | -34.57854 | 37095 ft | 521 kts | 70° |
| 2026-04-16 18:04 | 49.23253 | -34.47220 | 37092 ft | 521 kts | 70° |
| 2026-04-16 18:05 | 49.25312 | -34.36577 | 37093 ft | 521 kts | 70° |
| 2026-04-16 18:05 | 49.27359 | -34.25934 | 37082 ft | 521 kts | 70° |
| 2026-04-16 18:06 | 49.29396 | -34.15278 | 37083 ft | 521 kts | 70° |
| 2026-04-16 18:06 | 49.31426 | -34.04603 | 37082 ft | 521 kts | 70° |
| 2026-04-16 18:07 | 49.33443 | -33.93938 | 37094 ft | 521 kts | 70° |
| 2026-04-16 18:07 | 49.35455 | -33.83239 | 37077 ft | 521 kts | 70° |
| 2026-04-16 18:08 | 49.37453 | -33.72549 | 37075 ft | 520 kts | 70° |
| 2026-04-16 18:08 | 49.39425 | -33.61942 | 37069 ft | 520 kts | 70° |
| 2026-04-16 18:09 | 49.41402 | -33.51239 | 37068 ft | 520 kts | 71° |
| 2026-04-16 18:09 | 49.42392 | -33.45865 | 37177 ft | 522 kts | 71° |
| 2026-04-16 18:09 | 49.43375 | -33.40504 | 37467 ft | 520 kts | 71° |
| 2026-04-16 18:10 | 49.44355 | -33.35144 | 37741 ft | 518 kts | 71° |
| 2026-04-16 18:10 | 49.45326 | -33.29815 | 37958 ft | 518 kts | 71° |
| 2026-04-16 18:10 | 49.46302 | -33.24453 | 38064 ft | 519 kts | 71° |
| 2026-04-16 18:10 | 49.47274 | -33.19095 | 38066 ft | 519 kts | 71° |
| 2026-04-16 18:11 | 49.49210 | -33.08378 | 38070 ft | 519 kts | 71° |
| 2026-04-16 18:11 | 49.51133 | -32.97662 | 38057 ft | 519 kts | 71° |
| 2026-04-16 18:12 | 49.53045 | -32.86935 | 38054 ft | 519 kts | 71° |
| 2026-04-16 18:12 | 49.54948 | -32.76203 | 38054 ft | 519 kts | 71° |
| 2026-04-16 18:13 | 49.56842 | -32.65461 | 38070 ft | 519 kts | 72° |
| 2026-04-16 18:13 | 49.58715 | -32.54782 | 38049 ft | 518 kts | 72° |
| 2026-04-16 18:14 | 49.60582 | -32.44050 | 38049 ft | 518 kts | 72° |
| 2026-04-16 18:14 | 49.62443 | -32.33300 | 38042 ft | 518 kts | 72° |
| 2026-04-16 18:15 | 49.64293 | -32.22546 | 38052 ft | 518 kts | 72° |
| 2026-04-16 18:15 | 49.66134 | -32.11789 | 38043 ft | 517 kts | 72° |
| 2026-04-16 18:16 | 49.67961 | -32.01027 | 38032 ft | 517 kts | 72° |
| 2026-04-16 18:16 | 49.69778 | -31.90261 | 38011 ft | 517 kts | 73° |
| 2026-04-16 18:17 | 49.71585 | -31.79500 | 38040 ft | 517 kts | 73° |
| 2026-04-16 18:17 | 49.73370 | -31.68808 | 38024 ft | 516 kts | 73° |
| 2026-04-16 18:18 | 49.75153 | -31.58037 | 38023 ft | 516 kts | 73° |
| 2026-04-16 18:18 | 49.76927 | -31.47257 | 38018 ft | 516 kts | 73° |
| 2026-04-16 18:19 | 49.78693 | -31.36464 | 38014 ft | 516 kts | 73° |
| 2026-04-16 18:19 | 49.80449 | -31.25679 | 38013 ft | 516 kts | 74° |
| 2026-04-16 18:20 | 49.82193 | -31.14868 | 38006 ft | 517 kts | 74° |
| 2026-04-16 18:20 | 49.83928 | -31.04055 | 38007 ft | 517 kts | 74° |
| 2026-04-16 18:21 | 49.85654 | -30.93224 | 38004 ft | 517 kts | 74° |
| 2026-04-16 18:21 | 49.87374 | -30.82386 | 37997 ft | 517 kts | 75° |
| 2026-04-16 18:22 | 49.89078 | -30.71541 | 37995 ft | 517 kts | 75° |
| 2026-04-16 18:22 | 49.90773 | -30.60681 | 37990 ft | 517 kts | 75° |
| 2026-04-16 18:23 | 49.92457 | -30.49823 | 37990 ft | 517 kts | 75° |
| 2026-04-16 18:23 | 49.94137 | -30.38938 | 37988 ft | 518 kts | 75° |
| 2026-04-16 18:24 | 49.95802 | -30.28050 | 37977 ft | 518 kts | 75° |
| 2026-04-16 18:24 | 49.97445 | -30.17216 | 37977 ft | 518 kts | 75° |
| 2026-04-16 18:25 | 49.99090 | -30.06293 | 37975 ft | 518 kts | 75° |
| 2026-04-16 18:25 | 50.00723 | -29.95365 | 37973 ft | 519 kts | 76° |
| 2026-04-16 18:26 | 50.02320 | -29.84396 | 37967 ft | 519 kts | 76° |
| 2026-04-16 18:26 | 50.03898 | -29.73421 | 37965 ft | 519 kts | 76° |
| 2026-04-16 18:27 | 50.05464 | -29.62443 | 37962 ft | 519 kts | 76° |
| 2026-04-16 18:27 | 50.07023 | -29.51441 | 37956 ft | 519 kts | 76° |
| 2026-04-16 18:28 | 50.08560 | -29.40512 | 37955 ft | 520 kts | 77° |
| 2026-04-16 18:28 | 50.10098 | -29.29487 | 37952 ft | 520 kts | 77° |
| 2026-04-16 18:29 | 50.11626 | -29.18461 | 37945 ft | 520 kts | 77° |
| 2026-04-16 18:29 | 50.13143 | -29.07428 | 37946 ft | 520 kts | 77° |
| 2026-04-16 18:30 | 50.14649 | -28.96395 | 37940 ft | 520 kts | 77° |
| 2026-04-16 18:30 | 50.16146 | -28.85342 | 37940 ft | 520 kts | 77° |
| 2026-04-16 18:31 | 50.17630 | -28.74302 | 37942 ft | 520 kts | 77° |
| 2026-04-16 18:31 | 50.19108 | -28.63230 | 37941 ft | 520 kts | 77° |
| 2026-04-16 18:32 | 50.20574 | -28.52155 | 37935 ft | 520 kts | 77° |
| 2026-04-16 18:32 | 50.22028 | -28.41078 | 37925 ft | 520 kts | 77° |
| 2026-04-16 18:33 | 50.23473 | -28.29987 | 37921 ft | 520 kts | 77° |
| 2026-04-16 18:33 | 50.24907 | -28.18903 | 37928 ft | 520 kts | 78° |
| 2026-04-16 18:34 | 50.26331 | -28.07802 | 37912 ft | 520 kts | 78° |
| 2026-04-16 18:34 | 50.27735 | -27.96755 | 37913 ft | 521 kts | 78° |
| 2026-04-16 18:35 | 50.29139 | -27.85630 | 37907 ft | 521 kts | 78° |
| 2026-04-16 18:35 | 50.30534 | -27.74488 | 37909 ft | 521 kts | 78° |
| 2026-04-16 18:36 | 50.31918 | -27.63344 | 37903 ft | 521 kts | 78° |
| 2026-04-16 18:36 | 50.33291 | -27.52185 | 37896 ft | 521 kts | 78° |
| 2026-04-16 18:37 | 50.34652 | -27.41033 | 37894 ft | 521 kts | 78° |
| 2026-04-16 18:37 | 50.36005 | -27.29858 | 37888 ft | 521 kts | 78° |
| 2026-04-16 18:38 | 50.37348 | -27.18668 | 37881 ft | 523 kts | 79° |
| 2026-04-16 18:38 | 50.38682 | -27.07463 | 37880 ft | 522 kts | 79° |
| 2026-04-16 18:39 | 50.40003 | -26.96256 | 37873 ft | 523 kts | 79° |
| 2026-04-16 18:39 | 50.41307 | -26.85110 | 37875 ft | 522 kts | 79° |
| 2026-04-16 18:40 | 50.42621 | -26.73788 | 37862 ft | 524 kts | 79° |
| 2026-04-16 18:40 | 50.43906 | -26.62591 | 37852 ft | 524 kts | 79° |
| 2026-04-16 18:41 | 50.45192 | -26.51294 | 37854 ft | 524 kts | 79° |
| 2026-04-16 18:41 | 50.46464 | -26.40020 | 37847 ft | 523 kts | 79° |
| 2026-04-16 18:42 | 50.47728 | -26.28728 | 37848 ft | 524 kts | 80° |
| 2026-04-16 18:42 | 50.48981 | -26.17418 | 37838 ft | 525 kts | 80° |
| 2026-04-16 18:43 | 50.50222 | -26.06104 | 37828 ft | 525 kts | 80° |
| 2026-04-16 18:43 | 50.51455 | -25.94756 | 37828 ft | 526 kts | 80° |
| 2026-04-16 18:44 | 50.52678 | -25.83418 | 37821 ft | 526 kts | 80° |
| 2026-04-16 18:44 | 50.53888 | -25.72069 | 37812 ft | 525 kts | 81° |
| 2026-04-16 18:45 | 50.54883 | -25.62644 | 37813 ft | 526 kts | 81° |
| 2026-04-16 18:45 | 50.56263 | -25.49460 | 37802 ft | 525 kts | 81° |
| 2026-04-16 18:46 | 50.57439 | -25.38122 | 37809 ft | 525 kts | 81° |
| 2026-04-16 18:46 | 50.58604 | -25.26765 | 37794 ft | 525 kts | 81° |
| 2026-04-16 18:47 | 50.59565 | -25.17304 | 37794 ft | 526 kts | 81° |
| 2026-04-16 18:47 | 50.60711 | -25.05924 | 37782 ft | 526 kts | 81° |
| 2026-04-16 18:48 | 50.61848 | -24.94519 | 37774 ft | 526 kts | 81° |
| 2026-04-16 18:48 | 50.62973 | -24.83124 | 37778 ft | 525 kts | 81° |
| 2026-04-16 18:49 | 50.64085 | -24.71734 | 37767 ft | 525 kts | 82° |
| 2026-04-16 18:49 | 50.65186 | -24.60333 | 37766 ft | 525 kts | 82° |
| 2026-04-16 18:50 | 50.66274 | -24.48942 | 37757 ft | 525 kts | 82° |
| 2026-04-16 18:50 | 50.67353 | -24.37530 | 37742 ft | 524 kts | 82° |
| 2026-04-16 18:51 | 50.68415 | -24.26191 | 37743 ft | 525 kts | 82° |
| 2026-04-16 18:51 | 50.69473 | -24.14763 | 37741 ft | 525 kts | 82° |
| 2026-04-16 18:52 | 50.70519 | -24.03326 | 37739 ft | 525 kts | 82° |
| 2026-04-16 18:52 | 50.71556 | -23.91885 | 37742 ft | 525 kts | 82° |
| 2026-04-16 18:53 | 50.72578 | -23.80451 | 37728 ft | 525 kts | 83° |
| 2026-04-16 18:53 | 50.73589 | -23.69014 | 37727 ft | 525 kts | 83° |
| 2026-04-16 18:54 | 50.74590 | -23.57566 | 37721 ft | 525 kts | 83° |
| 2026-04-16 18:54 | 50.75579 | -23.46139 | 37720 ft | 524 kts | 83° |
| 2026-04-16 18:55 | 50.76547 | -23.34807 | 37719 ft | 524 kts | 83° |
| 2026-04-16 18:55 | 50.77517 | -23.23307 | 37711 ft | 524 kts | 83° |
| 2026-04-16 18:56 | 50.78463 | -23.11964 | 37713 ft | 524 kts | 83° |
| 2026-04-16 18:56 | 50.79406 | -23.00528 | 37703 ft | 523 kts | 83° |
| 2026-04-16 18:57 | 50.80335 | -22.89113 | 37699 ft | 523 kts | 83° |
| 2026-04-16 18:58 | 50.81708 | -22.71967 | 37699 ft | 523 kts | 84° |
| 2026-04-16 18:58 | 50.82610 | -22.60536 | 37694 ft | 523 kts | 84° |
| 2026-04-16 18:59 | 50.83500 | -22.49118 | 37690 ft | 522 kts | 84° |
| 2026-04-16 18:59 | 50.84378 | -22.37686 | 37691 ft | 522 kts | 84° |
| 2026-04-16 19:00 | 50.85245 | -22.26251 | 37660 ft | 522 kts | 84° |
| 2026-04-16 19:00 | 50.86103 | -22.14791 | 37683 ft | 524 kts | 84° |
| 2026-04-16 19:01 | 50.86951 | -22.03322 | 37684 ft | 524 kts | 84° |
| 2026-04-16 19:01 | 50.87785 | -21.91850 | 37677 ft | 524 kts | 84° |
| 2026-04-16 19:02 | 50.88608 | -21.80378 | 37682 ft | 524 kts | 85° |
| 2026-04-16 19:02 | 50.89416 | -21.68968 | 37677 ft | 524 kts | 85° |
| 2026-04-16 19:03 | 50.90219 | -21.57486 | 37676 ft | 524 kts | 85° |
| 2026-04-16 19:03 | 50.91009 | -21.45998 | 37671 ft | 524 kts | 85° |
| 2026-04-16 19:04 | 50.91788 | -21.34499 | 37666 ft | 524 kts | 85° |
| 2026-04-16 19:04 | 50.92555 | -21.23011 | 37667 ft | 524 kts | 85° |
| 2026-04-16 19:05 | 50.93312 | -21.11525 | 37655 ft | 523 kts | 85° |
| 2026-04-16 19:05 | 50.94057 | -21.00016 | 37665 ft | 523 kts | 85° |
| 2026-04-16 19:06 | 50.94788 | -20.88520 | 37659 ft | 523 kts | 86° |
| 2026-04-16 19:06 | 50.95509 | -20.77024 | 37653 ft | 523 kts | 86° |
| 2026-04-16 19:07 | 50.96221 | -20.65509 | 37645 ft | 524 kts | 86° |
| 2026-04-16 19:07 | 50.96917 | -20.54058 | 37643 ft | 524 kts | 86° |
| 2026-04-16 19:08 | 50.97604 | -20.42519 | 37646 ft | 524 kts | 86° |
| 2026-04-16 19:08 | 50.98279 | -20.30982 | 37643 ft | 524 kts | 86° |
| 2026-04-16 19:09 | 50.98942 | -20.19446 | 37620 ft | 525 kts | 87° |
| 2026-04-16 19:09 | 50.99595 | -20.07850 | 37638 ft | 526 kts | 87° |
| 2026-04-16 19:10 | 51.00125 | -19.96251 | 37632 ft | 525 kts | 90° |
| 2026-04-16 19:10 | 51.00382 | -19.84654 | 37637 ft | 525 kts | 90° |
| 2026-04-16 19:11 | 51.00604 | -19.73037 | 37621 ft | 525 kts | 90° |
| 2026-04-16 19:11 | 51.00816 | -19.61419 | 37619 ft | 525 kts | 90° |
| 2026-04-16 19:12 | 51.01018 | -19.49817 | 37616 ft | 525 kts | 90° |
| 2026-04-16 19:12 | 51.01210 | -19.38283 | 37623 ft | 525 kts | 91° |
| 2026-04-16 19:13 | 51.01390 | -19.26674 | 37626 ft | 525 kts | 91° |
| 2026-04-16 19:13 | 51.01563 | -19.15049 | 37608 ft | 526 kts | 91° |
| 2026-04-16 19:14 | 51.01717 | -19.03424 | 37607 ft | 526 kts | 91° |
| 2026-04-16 19:14 | 51.01864 | -18.91800 | 37602 ft | 526 kts | 91° |
| 2026-04-16 19:15 | 51.01998 | -18.80171 | 37599 ft | 525 kts | 92° |
| 2026-04-16 19:15 | 51.02122 | -18.68545 | 37589 ft | 526 kts | 92° |
| 2026-04-16 19:16 | 51.02232 | -18.56909 | 37572 ft | 526 kts | 92° |
| 2026-04-16 19:16 | 51.02334 | -18.45254 | 37577 ft | 527 kts | 92° |
| 2026-04-16 19:17 | 51.02421 | -18.33593 | 37579 ft | 527 kts | 92° |
| 2026-04-16 19:17 | 51.02497 | -18.22006 | 37561 ft | 527 kts | 92° |
| 2026-04-16 19:18 | 51.02562 | -18.10318 | 37567 ft | 527 kts | 92° |
| 2026-04-16 19:18 | 51.02619 | -17.98653 | 37561 ft | 527 kts | 92° |
| 2026-04-16 19:19 | 51.02661 | -17.86985 | 37562 ft | 527 kts | 92° |
| 2026-04-16 19:19 | 51.02693 | -17.75330 | 37547 ft | 527 kts | 93° |
| 2026-04-16 19:20 | 51.02713 | -17.63695 | 37546 ft | 525 kts | 92° |
| 2026-04-16 19:20 | 51.02723 | -17.52087 | 37550 ft | 525 kts | 92° |
| 2026-04-16 19:21 | 51.02719 | -17.40553 | 37535 ft | 525 kts | 93° |
| 2026-04-16 19:21 | 51.02704 | -17.28959 | 37535 ft | 525 kts | 93° |
| 2026-04-16 19:22 | 51.02677 | -17.17352 | 37529 ft | 523 kts | 93° |
| 2026-04-16 19:22 | 51.02639 | -17.05768 | 37508 ft | 523 kts | 93° |
| 2026-04-16 19:23 | 51.02591 | -16.94160 | 37530 ft | 525 kts | 93° |
| 2026-04-16 19:23 | 51.02528 | -16.82527 | 37529 ft | 525 kts | 94° |
| 2026-04-16 19:24 | 51.02456 | -16.70905 | 37523 ft | 526 kts | 94° |
| 2026-04-16 19:24 | 51.02372 | -16.59272 | 37536 ft | 526 kts | 94° |
| 2026-04-16 19:25 | 51.02274 | -16.47596 | 37535 ft | 526 kts | 94° |
| 2026-04-16 19:25 | 51.02167 | -16.36038 | 37544 ft | 526 kts | 94° |
| 2026-04-16 19:26 | 51.02048 | -16.24412 | 37521 ft | 526 kts | 94° |
| 2026-04-16 19:26 | 51.01919 | -16.12795 | 37539 ft | 525 kts | 94° |
| 2026-04-16 19:27 | 51.01775 | -16.01175 | 37536 ft | 525 kts | 95° |
| 2026-04-16 19:27 | 51.01620 | -15.89539 | 37539 ft | 525 kts | 95° |
| 2026-04-16 19:28 | 51.01454 | -15.77917 | 37561 ft | 525 kts | 95° |
| 2026-04-16 19:28 | 51.01278 | -15.66299 | 37562 ft | 525 kts | 95° |
| 2026-04-16 19:29 | 51.01089 | -15.54705 | 37566 ft | 525 kts | 95° |
| 2026-04-16 19:29 | 51.00889 | -15.43101 | 37562 ft | 526 kts | 95° |
| 2026-04-16 19:30 | 51.00676 | -15.31552 | 37572 ft | 526 kts | 96° |
| 2026-04-16 19:30 | 51.00449 | -15.19903 | 37594 ft | 525 kts | 96° |
| 2026-04-16 19:31 | 51.00207 | -15.08301 | 37599 ft | 525 kts | 96° |
| 2026-04-16 19:31 | 51.00038 | -14.96682 | 37608 ft | 526 kts | 94° |
| 2026-04-16 19:32 | 51.00084 | -14.85031 | 37613 ft | 527 kts | 94° |
| 2026-04-16 19:32 | 51.00127 | -14.73377 | 37613 ft | 527 kts | 94° |
| 2026-04-16 19:33 | 51.00149 | -14.61737 | 37630 ft | 526 kts | 94° |
| 2026-04-16 19:33 | 51.00154 | -14.50093 | 37630 ft | 527 kts | 94° |
| 2026-04-16 19:34 | 51.00146 | -14.38449 | 37643 ft | 526 kts | 94° |
| 2026-04-16 19:34 | 51.00127 | -14.26877 | 37637 ft | 526 kts | 94° |
| 2026-04-16 19:35 | 51.00093 | -14.15238 | 37650 ft | 526 kts | 94° |
| 2026-04-16 19:35 | 51.00045 | -14.03602 | 37660 ft | 526 kts | 94° |
| 2026-04-16 19:36 | 51.00223 | -13.91949 | 37661 ft | 528 kts | 91° |
| 2026-04-16 19:36 | 51.00526 | -13.80268 | 37646 ft | 528 kts | 91° |
| 2026-04-16 19:37 | 51.00815 | -13.68577 | 37674 ft | 529 kts | 92° |
| 2026-04-16 19:37 | 51.01081 | -13.56884 | 37671 ft | 530 kts | 92° |
| 2026-04-16 19:38 | 51.01333 | -13.45156 | 37697 ft | 530 kts | 92° |
| 2026-04-16 19:38 | 51.01572 | -13.33445 | 37678 ft | 530 kts | 92° |
| 2026-04-16 19:39 | 51.01763 | -13.23686 | 37699 ft | 530 kts | 92° |
| 2026-04-16 19:39 | 51.01981 | -13.11976 | 37713 ft | 530 kts | 92° |
| 2026-04-16 19:40 | 51.02187 | -13.00269 | 37715 ft | 529 kts | 92° |
| 2026-04-16 19:40 | 51.02381 | -12.88556 | 37722 ft | 529 kts | 92° |
| 2026-04-16 19:41 | 51.02564 | -12.76849 | 37710 ft | 529 kts | 93° |
| 2026-04-16 19:41 | 51.02735 | -12.65136 | 37738 ft | 529 kts | 93° |
| 2026-04-16 19:42 | 51.02894 | -12.53428 | 37742 ft | 529 kts | 93° |
| 2026-04-16 19:42 | 51.03041 | -12.41713 | 37744 ft | 529 kts | 93° |
| 2026-04-16 19:43 | 51.03177 | -12.30012 | 37746 ft | 529 kts | 93° |
| 2026-04-16 19:43 | 51.03301 | -12.18293 | 37750 ft | 529 kts | 93° |
| 2026-04-16 19:44 | 51.03413 | -12.06659 | 37760 ft | 529 kts | 93° |
| 2026-04-16 19:44 | 51.03513 | -11.94961 | 37775 ft | 529 kts | 94° |
| 2026-04-16 19:45 | 51.03602 | -11.83261 | 37759 ft | 529 kts | 94° |
| 2026-04-16 19:45 | 51.03679 | -11.71566 | 37778 ft | 529 kts | 94° |
| 2026-04-16 19:46 | 51.03745 | -11.59860 | 37788 ft | 529 kts | 94° |
| 2026-04-16 19:46 | 51.03799 | -11.48159 | 37789 ft | 528 kts | 94° |
| 2026-04-16 19:47 | 51.03841 | -11.36458 | 37782 ft | 529 kts | 94° |
| 2026-04-16 19:47 | 51.03872 | -11.24763 | 37796 ft | 529 kts | 94° |
| 2026-04-16 19:48 | 51.03891 | -11.13050 | 37785 ft | 529 kts | 94° |
| 2026-04-16 19:48 | 51.03898 | -11.01336 | 37816 ft | 530 kts | 94° |
| 2026-04-16 19:49 | 51.03893 | -10.89624 | 37799 ft | 530 kts | 95° |
| 2026-04-16 19:49 | 51.03877 | -10.77871 | 37828 ft | 530 kts | 95° |
| 2026-04-16 19:50 | 51.03849 | -10.66232 | 37831 ft | 530 kts | 95° |
| 2026-04-16 19:50 | 51.03809 | -10.54496 | 37847 ft | 530 kts | 95° |
| 2026-04-16 19:51 | 51.03757 | -10.42774 | 37835 ft | 530 kts | 95° |
| 2026-04-16 19:51 | 51.03693 | -10.31032 | 37857 ft | 531 kts | 95° |
| 2026-04-16 19:52 | 51.03618 | -10.19288 | 37867 ft | 531 kts | 95° |
| 2026-04-16 19:52 | 51.03532 | -10.07538 | 37867 ft | 531 kts | 95° |
| 2026-04-16 19:53 | 51.03433 | -9.95806 | 37877 ft | 531 kts | 95° |
| 2026-04-16 19:53 | 51.03323 | -9.84069 | 37896 ft | 530 kts | 95° |
| 2026-04-16 19:54 | 51.03200 | -9.72328 | 37890 ft | 530 kts | 96° |
| 2026-04-16 19:54 | 51.03066 | -9.60593 | 37897 ft | 530 kts | 96° |
| 2026-04-16 19:55 | 51.02920 | -9.48860 | 37887 ft | 530 kts | 96° |
| 2026-04-16 19:55 | 51.02762 | -9.37104 | 37903 ft | 532 kts | 96° |
| 2026-04-16 19:56 | 51.02592 | -9.25349 | 37922 ft | 532 kts | 96° |
| 2026-04-16 19:56 | 51.02412 | -9.13666 | 37916 ft | 531 kts | 96° |
| 2026-04-16 19:57 | 51.02219 | -9.01915 | 37927 ft | 531 kts | 96° |
| 2026-04-16 19:57 | 51.02013 | -8.90174 | 37924 ft | 532 kts | 96° |
| 2026-04-16 19:58 | 51.01796 | -8.78415 | 37938 ft | 532 kts | 96° |
| 2026-04-16 19:58 | 51.01567 | -8.66664 | 37938 ft | 531 kts | 96° |
| 2026-04-16 19:59 | 51.01325 | -8.54905 | 37947 ft | 532 kts | 96° |
| 2026-04-16 19:59 | 51.01070 | -8.43120 | 37945 ft | 533 kts | 96° |
| 2026-04-16 20:00 | 51.00665 | -8.25467 | 37969 ft | 533 kts | 96° |
| 2026-04-16 20:00 | 51.00376 | -8.13682 | 37979 ft | 533 kts | 97° |
| 2026-04-16 20:01 | 51.00100 | -8.01908 | 37954 ft | 534 kts | 95° |
| 2026-04-16 20:01 | 51.00306 | -7.90073 | 37987 ft | 536 kts | 91° |
| 2026-04-16 20:02 | 51.00681 | -7.78223 | 37987 ft | 536 kts | 91° |
| 2026-04-16 20:02 | 51.01039 | -7.66364 | 37992 ft | 536 kts | 91° |
| 2026-04-16 20:03 | 51.01373 | -7.54472 | 37978 ft | 536 kts | 91° |
| 2026-04-16 20:03 | 51.01686 | -7.42733 | 37999 ft | 534 kts | 91° |
| 2026-04-16 20:04 | 51.01988 | -7.30925 | 38010 ft | 534 kts | 91° |
| 2026-04-16 20:04 | 51.02277 | -7.19113 | 38014 ft | 534 kts | 91° |
| 2026-04-16 20:05 | 51.02555 | -7.07295 | 37985 ft | 533 kts | 92° |
| 2026-04-16 20:05 | 51.02821 | -6.95525 | 38022 ft | 532 kts | 92° |
| 2026-04-16 20:06 | 51.03073 | -6.83770 | 38024 ft | 531 kts | 92° |
| 2026-04-16 20:06 | 51.03314 | -6.72017 | 38031 ft | 531 kts | 92° |
| 2026-04-16 20:07 | 51.03543 | -6.60268 | 38009 ft | 531 kts | 92° |
| 2026-04-16 20:07 | 51.03761 | -6.48528 | 38036 ft | 530 kts | 92° |
| 2026-04-16 20:08 | 51.03966 | -6.36800 | 38050 ft | 530 kts | 92° |
| 2026-04-16 20:08 | 51.04158 | -6.25135 | 38050 ft | 530 kts | 92° |
| 2026-04-16 20:09 | 51.04339 | -6.13412 | 38034 ft | 530 kts | 92° |
| 2026-04-16 20:09 | 51.04510 | -6.01673 | 38061 ft | 530 kts | 93° |
| 2026-04-16 20:10 | 51.04668 | -5.89958 | 38059 ft | 530 kts | 93° |
| 2026-04-16 20:10 | 51.04814 | -5.78237 | 38069 ft | 530 kts | 93° |
| 2026-04-16 20:11 | 51.04948 | -5.66510 | 38049 ft | 530 kts | 93° |
| 2026-04-16 20:11 | 51.05070 | -5.54779 | 38071 ft | 530 kts | 93° |
| 2026-04-16 20:12 | 51.05181 | -5.43124 | 38075 ft | 530 kts | 93° |
| 2026-04-16 20:12 | 51.05281 | -5.31366 | 38082 ft | 530 kts | 93° |
| 2026-04-16 20:13 | 51.05369 | -5.19636 | 38081 ft | 530 kts | 93° |
| 2026-04-16 20:13 | 51.05445 | -5.07912 | 38095 ft | 530 kts | 94° |
| 2026-04-16 20:14 | 51.05510 | -4.96182 | 38089 ft | 530 kts | 94° |
| 2026-04-16 20:14 | 51.05562 | -4.84466 | 38095 ft | 530 kts | 94° |
| 2026-04-16 20:15 | 51.05603 | -4.72723 | 38071 ft | 530 kts | 94° |
| 2026-04-16 20:15 | 51.05631 | -4.61002 | 38095 ft | 530 kts | 94° |
| 2026-04-16 20:16 | 51.05649 | -4.49264 | 38106 ft | 530 kts | 94° |
| 2026-04-16 20:16 | 51.05655 | -4.37538 | 38107 ft | 530 kts | 94° |
| 2026-04-16 20:17 | 51.05649 | -4.25883 | 38107 ft | 530 kts | 94° |
| 2026-04-16 20:17 | 51.05629 | -4.14144 | 38110 ft | 530 kts | 94° |
| 2026-04-16 20:18 | 51.05600 | -4.02415 | 38115 ft | 530 kts | 94° |
| 2026-04-16 20:18 | 51.05559 | -3.90696 | 38117 ft | 530 kts | 94° |
| 2026-04-16 20:19 | 51.05507 | -3.78964 | 38118 ft | 529 kts | 94° |
| 2026-04-16 20:19 | 51.05439 | -3.67253 | 38123 ft | 528 kts | 94° |
| 2026-04-16 20:20 | 51.05364 | -3.55541 | 38118 ft | 528 kts | 94° |
| 2026-04-16 20:20 | 51.05277 | -3.43846 | 38122 ft | 528 kts | 94° |
| 2026-04-16 20:21 | 51.05177 | -3.32170 | 38131 ft | 528 kts | 94° |
| 2026-04-16 20:21 | 51.05063 | -3.20468 | 38122 ft | 528 kts | 94° |
| 2026-04-16 20:22 | 51.04942 | -3.08855 | 38124 ft | 528 kts | 94° |
| 2026-04-16 20:22 | 51.04808 | -2.97170 | 38137 ft | 528 kts | 95° |
| 2026-04-16 20:23 | 51.04662 | -2.85482 | 38133 ft | 528 kts | 95° |
| 2026-04-16 20:23 | 51.04499 | -2.73787 | 38142 ft | 528 kts | 94° |
| 2026-04-16 20:24 | 51.04330 | -2.62118 | 38148 ft | 528 kts | 94° |
| 2026-04-16 20:24 | 51.04149 | -2.50443 | 38150 ft | 527 kts | 95° |
| 2026-04-16 20:25 | 51.03955 | -2.38766 | 38151 ft | 527 kts | 95° |
| 2026-04-16 20:25 | 51.03744 | -2.27089 | 38142 ft | 528 kts | 95° |
| 2026-04-16 20:26 | 51.03524 | -2.15421 | 38152 ft | 528 kts | 95° |
| 2026-04-16 20:26 | 51.03298 | -2.03731 | 38163 ft | 528 kts | 94° |
| 2026-04-16 20:27 | 51.03522 | -1.92023 | 38157 ft | 530 kts | 89° |
| 2026-04-16 20:27 | 51.04012 | -1.80320 | 38151 ft | 530 kts | 88° |
| 2026-04-16 20:28 | 51.04420 | -1.70580 | 38143 ft | 530 kts | 88° |
| 2026-04-16 20:28 | 51.04960 | -1.56967 | 38170 ft | 530 kts | 88° |
| 2026-04-16 20:29 | 51.05330 | -1.47229 | 38171 ft | 530 kts | 89° |
| 2026-04-16 20:29 | 51.05759 | -1.35509 | 38176 ft | 530 kts | 88° |
| 2026-04-16 20:30 | 51.06179 | -1.23781 | 38173 ft | 531 kts | 88° |
| 2026-04-16 20:30 | 51.06590 | -1.12043 | 38178 ft | 530 kts | 89° |
| 2026-04-16 20:31 | 51.06987 | -1.00310 | 38174 ft | 530 kts | 89° |
| 2026-04-16 20:31 | 51.07368 | -0.88599 | 38164 ft | 529 kts | 88° |
| 2026-04-16 20:32 | 51.07740 | -0.76884 | 38178 ft | 529 kts | 88° |
| 2026-04-16 20:32 | 51.08103 | -0.65188 | 38182 ft | 529 kts | 89° |
| 2026-04-16 20:33 | 51.08452 | -0.53494 | 38196 ft | 528 kts | 89° |
| 2026-04-16 20:33 | 51.08789 | -0.41796 | 38197 ft | 528 kts | 89° |
| 2026-04-16 20:34 | 51.09114 | -0.30103 | 38208 ft | 528 kts | 89° |
| 2026-04-16 20:34 | 51.09425 | -0.18473 | 38205 ft | 528 kts | 89° |
| 2026-04-16 20:35 | 51.09727 | -0.06768 | 38203 ft | 528 kts | 89° |
| 2026-04-16 20:35 | 51.10014 | 0.04920 | 38060 ft | 528 kts | 89° |
| 2026-04-16 20:36 | 51.10292 | 0.16612 | 37998 ft | 527 kts | 89° |
| 2026-04-16 20:36 | 51.10560 | 0.28292 | 37932 ft | 527 kts | 89° |
| 2026-04-16 20:37 | 51.10815 | 0.39984 | 37905 ft | 527 kts | 89° |
| 2026-04-16 20:37 | 51.11055 | 0.51656 | 37900 ft | 527 kts | 89° |
| 2026-04-16 20:38 | 51.11285 | 0.63334 | 37963 ft | 527 kts | 89° |
| 2026-04-16 20:38 | 51.11507 | 0.75012 | 38038 ft | 527 kts | 89° |
| 2026-04-16 20:39 | 51.11715 | 0.86686 | 38115 ft | 527 kts | 89° |
| 2026-04-16 20:39 | 51.11908 | 0.98364 | 38190 ft | 527 kts | 89° |
| 2026-04-16 20:40 | 51.12090 | 1.10024 | 38199 ft | 526 kts | 89° |
| 2026-04-16 20:40 | 51.12265 | 1.21678 | 38199 ft | 526 kts | 89° |
| 2026-04-16 20:41 | 51.12426 | 1.33329 | 38199 ft | 526 kts | 89° |
| 2026-04-16 20:41 | 51.12573 | 1.45001 | 38199 ft | 526 kts | 89° |
| 2026-04-16 20:42 | 51.12707 | 1.56645 | 38204 ft | 525 kts | 89° |
| 2026-04-16 20:42 | 51.12832 | 1.68275 | 38205 ft | 525 kts | 89° |
| 2026-04-16 20:43 | 51.12941 | 1.79903 | 38210 ft | 525 kts | 89° |
| 2026-04-16 20:43 | 51.13036 | 1.91540 | 38216 ft | 525 kts | 89° |
| 2026-04-16 20:44 | 51.12958 | 2.03173 | 38225 ft | 524 kts | 94° |
| 2026-04-16 20:44 | 51.12409 | 2.14771 | 38225 ft | 524 kts | 95° |
| 2026-04-16 20:45 | 51.11800 | 2.26363 | 38224 ft | 524 kts | 95° |
| 2026-04-16 20:45 | 51.11194 | 2.37859 | 38216 ft | 524 kts | 95° |
| 2026-04-16 20:46 | 51.10488 | 2.49569 | 38204 ft | 523 kts | 101° |
| 2026-04-16 20:46 | 51.08708 | 2.60709 | 38224 ft | 522 kts | 107° |
| 2026-04-16 20:47 | 51.06702 | 2.71834 | 38227 ft | 522 kts | 107° |
| 2026-04-16 20:47 | 51.04727 | 2.82962 | 38231 ft | 522 kts | 107° |
| 2026-04-16 20:48 | 51.02768 | 2.94098 | 38230 ft | 522 kts | 106° |
| 2026-04-16 20:48 | 51.00819 | 3.05207 | 38229 ft | 522 kts | 106° |
| 2026-04-16 20:49 | 50.98854 | 3.16344 | 38228 ft | 522 kts | 107° |
| 2026-04-16 20:49 | 50.96880 | 3.27453 | 38227 ft | 522 kts | 107° |
| 2026-04-16 20:50 | 50.94894 | 3.38547 | 38224 ft | 522 kts | 106° |
| 2026-04-16 20:50 | 50.92904 | 3.49610 | 38229 ft | 521 kts | 107° |
| 2026-04-16 20:51 | 50.90899 | 3.60695 | 38229 ft | 521 kts | 107° |
| 2026-04-16 20:51 | 50.88886 | 3.71749 | 38228 ft | 521 kts | 107° |
| 2026-04-16 20:52 | 50.86858 | 3.82802 | 38231 ft | 522 kts | 107° |
| 2026-04-16 20:52 | 50.84820 | 3.93857 | 38232 ft | 522 kts | 107° |
| 2026-04-16 20:53 | 50.82774 | 4.04893 | 38235 ft | 522 kts | 107° |
| 2026-04-16 20:53 | 50.80717 | 4.15915 | 38234 ft | 522 kts | 107° |
| 2026-04-16 20:54 | 50.78661 | 4.26859 | 38223 ft | 521 kts | 107° |
| 2026-04-16 20:54 | 50.76584 | 4.37846 | 38231 ft | 521 kts | 107° |
| 2026-04-16 20:55 | 50.74497 | 4.48808 | 38232 ft | 521 kts | 107° |
| 2026-04-16 20:55 | 50.72394 | 4.59787 | 38233 ft | 521 kts | 107° |
| 2026-04-16 20:56 | 50.70285 | 4.70741 | 38233 ft | 521 kts | 107° |
| 2026-04-16 20:56 | 50.68152 | 4.81693 | 38234 ft | 521 kts | 107° |
| 2026-04-16 20:57 | 50.66006 | 4.92633 | 38232 ft | 521 kts | 108° |
| 2026-04-16 20:57 | 50.63793 | 5.03538 | 38233 ft | 521 kts | 108° |
| 2026-04-16 20:58 | 50.61544 | 5.14421 | 38233 ft | 521 kts | 108° |
| 2026-04-16 20:58 | 50.59276 | 5.25336 | 38234 ft | 522 kts | 108° |
| 2026-04-16 20:59 | 50.57009 | 5.36209 | 38234 ft | 522 kts | 108° |
| 2026-04-16 20:59 | 50.54734 | 5.47045 | 38204 ft | 519 kts | 108° |
| 2026-04-16 21:00 | 50.53601 | 5.52418 | 37829 ft | 515 kts | 108° |
| 2026-04-16 21:00 | 50.52468 | 5.57776 | 37099 ft | 516 kts | 108° |
| 2026-04-16 21:00 | 50.51354 | 5.63157 | 36249 ft | 520 kts | 107° |
| 2026-04-16 21:00 | 50.50325 | 5.68647 | 35406 ft | 524 kts | 106° |
| 2026-04-16 21:01 | 50.49303 | 5.74167 | 34641 ft | 527 kts | 106° |
| 2026-04-16 21:01 | 50.48274 | 5.79709 | 33840 ft | 529 kts | 107° |
| 2026-04-16 21:01 | 50.47245 | 5.85211 | 32996 ft | 532 kts | 107° |
| 2026-04-16 21:01 | 50.46197 | 5.90791 | 32137 ft | 534 kts | 107° |
| 2026-04-16 21:02 | 50.45135 | 5.96412 | 31284 ft | 536 kts | 107° |
| 2026-04-16 21:02 | 50.44073 | 6.02012 | 30465 ft | 538 kts | 107° |
| 2026-04-16 21:02 | 50.42995 | 6.07661 | 29519 ft | 540 kts | 107° |
| 2026-04-16 21:03 | 50.40854 | 6.18859 | 28377 ft | 527 kts | 107° |
| 2026-04-16 21:03 | 50.39801 | 6.24341 | 27836 ft | 521 kts | 107° |
| 2026-04-16 21:03 | 50.38759 | 6.29745 | 27272 ft | 515 kts | 107° |
| 2026-04-16 21:03 | 50.37727 | 6.35096 | 26726 ft | 510 kts | 106° |
| 2026-04-16 21:04 | 50.36827 | 6.40468 | 26183 ft | 505 kts | 102° |
| 2026-04-16 21:04 | 50.36190 | 6.45856 | 25655 ft | 500 kts | 97° |
| 2026-04-16 21:04 | 50.35784 | 6.51246 | 25135 ft | 494 kts | 94° |
| 2026-04-16 21:04 | 50.35466 | 6.56599 | 24628 ft | 489 kts | 94° |
| 2026-04-16 21:05 | 50.35156 | 6.61896 | 24116 ft | 485 kts | 94° |
| 2026-04-16 21:05 | 50.34837 | 6.67126 | 23589 ft | 480 kts | 95° |
| 2026-04-16 21:05 | 50.34509 | 6.72318 | 22999 ft | 476 kts | 95° |
| 2026-04-16 21:05 | 50.34181 | 6.77450 | 22379 ft | 472 kts | 95° |
| 2026-04-16 21:06 | 50.33777 | 6.82545 | 21807 ft | 469 kts | 99° |
| 2026-04-16 21:06 | 50.33028 | 6.87484 | 21329 ft | 463 kts | 107° |
| 2026-04-16 21:06 | 50.31919 | 6.92182 | 20885 ft | 456 kts | 114° |
| 2026-04-16 21:06 | 50.30603 | 6.96665 | 20465 ft | 450 kts | 116° |
| 2026-04-16 21:07 | 50.29253 | 7.01068 | 20023 ft | 445 kts | 116° |
| 2026-04-16 21:07 | 50.27931 | 7.05418 | 19596 ft | 440 kts | 116° |
| 2026-04-16 21:07 | 50.26631 | 7.09730 | 19167 ft | 435 kts | 116° |
| 2026-04-16 21:07 | 50.25347 | 7.14002 | 18756 ft | 431 kts | 116° |
| 2026-04-16 21:08 | 50.24076 | 7.18231 | 18310 ft | 427 kts | 116° |
| 2026-04-16 21:08 | 50.22770 | 7.22569 | 17838 ft | 423 kts | 116° |
| 2026-04-16 21:08 | 50.21525 | 7.26702 | 17406 ft | 418 kts | 116° |
| 2026-04-16 21:08 | 50.20294 | 7.30797 | 17003 ft | 414 kts | 115° |
| 2026-04-16 21:09 | 50.19162 | 7.34983 | 16585 ft | 410 kts | 111° |
| 2026-04-16 21:09 | 50.18166 | 7.39130 | 16171 ft | 406 kts | 110° |
| 2026-04-16 21:09 | 50.17187 | 7.43250 | 15771 ft | 403 kts | 110° |
| 2026-04-16 21:09 | 50.16216 | 7.47336 | 15360 ft | 400 kts | 110° |
| 2026-04-16 21:10 | 50.15248 | 7.51389 | 14957 ft | 397 kts | 110° |
| 2026-04-16 21:10 | 50.14284 | 7.55406 | 14550 ft | 394 kts | 110° |
| 2026-04-16 21:10 | 50.13323 | 7.59401 | 14148 ft | 391 kts | 110° |
| 2026-04-16 21:10 | 50.12384 | 7.63304 | 13715 ft | 388 kts | 111° |
| 2026-04-16 21:11 | 50.11308 | 7.67212 | 13274 ft | 385 kts | 116° |
| 2026-04-16 21:11 | 50.10029 | 7.70884 | 12960 ft | 389 kts | 122° |
| 2026-04-16 21:11 | 50.08545 | 7.74391 | 12986 ft | 394 kts | 125° |
| 2026-04-16 21:11 | 50.06978 | 7.77897 | 12997 ft | 395 kts | 126° |
| 2026-04-16 21:12 | 50.05397 | 7.81403 | 12851 ft | 395 kts | 126° |
| 2026-04-16 21:12 | 50.03824 | 7.84910 | 12390 ft | 393 kts | 126° |
| 2026-04-16 21:12 | 50.02274 | 7.88378 | 11963 ft | 388 kts | 126° |
| 2026-04-16 21:12 | 50.00818 | 7.91892 | 11510 ft | 385 kts | 117° |
| 2026-04-16 21:13 | 50.00159 | 7.95882 | 11238 ft | 380 kts | 93° |
| 2026-04-16 21:13 | 50.00486 | 7.99959 | 11240 ft | 382 kts | 72° |
| 2026-04-16 21:13 | 50.01423 | 8.03853 | 11245 ft | 382 kts | 68° |
| 2026-04-16 21:13 | 50.02076 | 8.06407 | 11237 ft | 382 kts | 68° |
| 2026-04-16 21:14 | 50.03070 | 8.10313 | 11233 ft | 382 kts | 68° |
| 2026-04-16 21:14 | 50.04022 | 8.14117 | 11235 ft | 382 kts | 69° |
| 2026-04-16 21:14 | 50.04976 | 8.17986 | 11194 ft | 382 kts | 69° |
| 2026-04-16 21:14 | 50.05916 | 8.21839 | 11133 ft | 374 kts | 69° |
| 2026-04-16 21:15 | 50.06802 | 8.25504 | 11181 ft | 347 kts | 69° |
| 2026-04-16 21:15 | 50.07609 | 8.28866 | 11189 ft | 317 kts | 69° |
| 2026-04-16 21:15 | 50.08351 | 8.31952 | 11262 ft | 293 kts | 68° |
| 2026-04-16 21:15 | 50.09048 | 8.34843 | 11273 ft | 275 kts | 68° |
| 2026-04-16 21:16 | 50.09709 | 8.37584 | 11254 ft | 268 kts | 68° |
| 2026-04-16 21:16 | 50.10365 | 8.40300 | 11240 ft | 267 kts | 68° |
| 2026-04-16 21:16 | 50.11018 | 8.43007 | 11237 ft | 266 kts | 68° |
| 2026-04-16 21:16 | 50.11669 | 8.45715 | 11222 ft | 267 kts | 69° |
| 2026-04-16 21:17 | 50.12322 | 8.48435 | 11202 ft | 268 kts | 69° |
| 2026-04-16 21:17 | 50.12976 | 8.51172 | 11211 ft | 268 kts | 69° |
| 2026-04-16 21:17 | 50.13626 | 8.53898 | 11213 ft | 268 kts | 69° |
| 2026-04-16 21:17 | 50.14278 | 8.56635 | 11212 ft | 268 kts | 69° |
| 2026-04-16 21:18 | 50.14927 | 8.59367 | 11202 ft | 268 kts | 69° |
| 2026-04-16 21:18 | 50.15576 | 8.62096 | 11212 ft | 268 kts | 69° |
| 2026-04-16 21:18 | 50.16232 | 8.64859 | 11210 ft | 268 kts | 69° |
| 2026-04-16 21:18 | 50.16882 | 8.67593 | 11203 ft | 268 kts | 69° |
| 2026-04-16 21:19 | 50.17523 | 8.70293 | 11205 ft | 268 kts | 69° |
| 2026-04-16 21:19 | 50.18171 | 8.73023 | 11214 ft | 268 kts | 69° |
| 2026-04-16 21:19 | 50.18820 | 8.75762 | 11206 ft | 268 kts | 69° |
| 2026-04-16 21:19 | 50.19467 | 8.78496 | 11208 ft | 267 kts | 69° |
| 2026-04-16 21:20 | 50.20102 | 8.81188 | 10970 ft | 262 kts | 69° |
| 2026-04-16 21:20 | 50.20735 | 8.83871 | 10499 ft | 264 kts | 69° |
| 2026-04-16 21:20 | 50.21368 | 8.86556 | 10105 ft | 262 kts | 70° |
| 2026-04-16 21:20 | 50.21994 | 8.89225 | 9984 ft | 261 kts | 70° |
| 2026-04-16 21:21 | 50.22620 | 8.91899 | 9911 ft | 262 kts | 70° |
| 2026-04-16 21:21 | 50.23245 | 8.94574 | 9835 ft | 262 kts | 70° |
| 2026-04-16 21:21 | 50.23872 | 8.97253 | 9714 ft | 262 kts | 70° |
| 2026-04-16 21:21 | 50.24496 | 8.99924 | 9593 ft | 261 kts | 70° |
| 2026-04-16 21:22 | 50.25117 | 9.02587 | 9457 ft | 260 kts | 70° |
| 2026-04-16 21:22 | 50.25736 | 9.05247 | 9293 ft | 260 kts | 70° |
| 2026-04-16 21:22 | 50.26352 | 9.07892 | 9121 ft | 259 kts | 70° |
| 2026-04-16 21:22 | 50.26968 | 9.10542 | 8901 ft | 258 kts | 70° |
| 2026-04-16 21:23 | 50.27578 | 9.13172 | 8738 ft | 257 kts | 70° |
| 2026-04-16 21:23 | 50.28188 | 9.15800 | 8596 ft | 256 kts | 70° |
| 2026-04-16 21:23 | 50.28796 | 9.18427 | 8465 ft | 256 kts | 70° |
| 2026-04-16 21:23 | 50.29404 | 9.21058 | 8312 ft | 258 kts | 70° |
| 2026-04-16 21:24 | 50.30012 | 9.23692 | 8139 ft | 257 kts | 70° |
| 2026-04-16 21:24 | 50.30616 | 9.26315 | 7959 ft | 255 kts | 69° |
| 2026-04-16 21:24 | 50.31219 | 9.28925 | 7790 ft | 254 kts | 69° |
| 2026-04-16 21:24 | 50.31726 | 9.31580 | 7578 ft | 253 kts | 82° |
| 2026-04-16 21:25 | 50.31606 | 9.34309 | 7403 ft | 252 kts | 106° |
| 2026-04-16 21:25 | 50.30769 | 9.36719 | 7213 ft | 248 kts | 135° |
| 2026-04-16 21:25 | 50.29313 | 9.38059 | 7041 ft | 243 kts | 167° |
| 2026-04-16 21:25 | 50.27659 | 9.38014 | 6861 ft | 238 kts | 198° |
| 2026-04-16 21:26 | 50.26274 | 9.36685 | 6697 ft | 235 kts | 227° |
| 2026-04-16 21:26 | 50.25415 | 9.34520 | 6525 ft | 235 kts | 244° |
| 2026-04-16 21:26 | 50.24706 | 9.32208 | 6362 ft | 235 kts | 245° |
| 2026-04-16 21:26 | 50.24011 | 9.29902 | 6166 ft | 235 kts | 245° |
| 2026-04-16 21:27 | 50.23308 | 9.27597 | 5998 ft | 234 kts | 244° |
| 2026-04-16 21:27 | 50.22598 | 9.25292 | 5820 ft | 234 kts | 244° |
| 2026-04-16 21:27 | 50.21889 | 9.23010 | 5639 ft | 233 kts | 244° |
| 2026-04-16 21:27 | 50.21201 | 9.20808 | 5453 ft | 223 kts | 244° |
| 2026-04-16 21:28 | 50.20533 | 9.18675 | 5279 ft | 214 kts | 244° |
| 2026-04-16 21:28 | 50.19881 | 9.16596 | 5087 ft | 209 kts | 244° |
| 2026-04-16 21:28 | 50.19251 | 9.14590 | 5010 ft | 208 kts | 244° |
| 2026-04-16 21:28 | 50.18616 | 9.12555 | 5010 ft | 208 kts | 245° |
| 2026-04-16 21:29 | 50.18059 | 9.10533 | 4992 ft | 195 kts | 249° |
| 2026-04-16 21:29 | 50.17597 | 9.08587 | 4988 ft | 188 kts | 250° |
| 2026-04-16 21:29 | 50.17149 | 9.06668 | 4995 ft | 188 kts | 250° |
| 2026-04-16 21:29 | 50.16702 | 9.04756 | 5002 ft | 187 kts | 250° |
| 2026-04-16 21:30 | 50.16255 | 9.02843 | 5003 ft | 187 kts | 250° |
| 2026-04-16 21:30 | 50.15808 | 9.00930 | 5004 ft | 187 kts | 250° |
| 2026-04-16 21:30 | 50.15361 | 8.99023 | 5009 ft | 187 kts | 250° |
| 2026-04-16 21:30 | 50.14913 | 8.97112 | 5006 ft | 187 kts | 250° |
| 2026-04-16 21:31 | 50.14463 | 8.95194 | 5009 ft | 187 kts | 250° |
| 2026-04-16 21:31 | 50.14013 | 8.93280 | 5009 ft | 187 kts | 250° |
| 2026-04-16 21:31 | 50.13564 | 8.91370 | 5011 ft | 187 kts | 250° |
| 2026-04-16 21:31 | 50.13117 | 8.89464 | 5011 ft | 188 kts | 250° |
| 2026-04-16 21:32 | 50.12682 | 8.87538 | 5010 ft | 187 kts | 251° |
| 2026-04-16 21:32 | 50.12270 | 8.85606 | 5012 ft | 187 kts | 251° |
| 2026-04-16 21:32 | 50.11844 | 8.83681 | 5014 ft | 188 kts | 250° |
| 2026-04-16 21:32 | 50.11422 | 8.81838 | 4915 ft | 180 kts | 249° |
| 2026-04-16 21:33 | 50.10978 | 8.80008 | 4664 ft | 177 kts | 248° |
| 2026-04-16 21:33 | 50.10532 | 8.78239 | 4458 ft | 174 kts | 248° |
| 2026-04-16 21:33 | 50.10099 | 8.76518 | 4216 ft | 172 kts | 249° |
| 2026-04-16 21:33 | 50.09693 | 8.74757 | 3968 ft | 172 kts | 250° |
| 2026-04-16 21:34 | 50.09310 | 8.72979 | 3678 ft | 168 kts | 251° |
| 2026-04-16 21:34 | 50.08946 | 8.71273 | 3316 ft | 164 kts | 250° |
| 2026-04-16 21:34 | 50.08555 | 8.69617 | 2921 ft | 161 kts | 247° |
| 2026-04-16 21:34 | 50.08109 | 8.67964 | 2562 ft | 170 kts | 246° |
| 2026-04-16 21:35 | 50.07672 | 8.66236 | 2333 ft | 168 kts | 249° |
| 2026-04-16 21:35 | 50.07284 | 8.64571 | 2037 ft | 159 kts | 249° |
| 2026-04-16 21:35 | 50.06910 | 8.62967 | 1742 ft | 159 kts | 249° |
| 2026-04-16 21:35 | 50.06516 | 8.61375 | 1500 ft | 156 kts | 249° |
| 2026-04-16 21:36 | 50.06128 | 8.59779 | 1288 ft | 158 kts | 249° |
| 2026-04-16 21:36 | 50.05728 | 8.58177 | 1079 ft | 159 kts | 250° |
| 2026-04-16 21:36 | 50.05350 | 8.56548 | 856 ft | 158 kts | 252° |
| 2026-04-16 21:36 | 50.04973 | 8.54988 | 627 ft | 151 kts | 251° |
| 2026-04-16 21:37 | 50.04603 | 8.53449 | 410 ft | 149 kts | 251° |
| 2026-04-16 21:37 | 50.04281 | 8.52105 | 348 ft | 100 kts | 250° |
| 2026-04-16 21:37 | 50.04120 | 8.51424 | 349 ft | 46 kts | 250° |
| 2026-04-16 21:37 | 50.03957 | 8.50977 | 333 ft | 36 kts | 222° |
| 2026-04-16 21:38 | 50.03853 | 8.50851 | 331 ft | 8 kts | 205° |
| 2026-04-16 21:38 | 50.03812 | 8.50851 | 338 ft | 5 kts | 156° |
| 2026-04-16 21:38 | 50.03799 | 8.50864 | 353 ft | 0 kts | 136° |
| 2026-04-16 21:39 | 50.03791 | 8.50891 | 353 ft | 8 kts | 108° |
| 2026-04-16 21:39 | 50.03807 | 8.51014 | 346 ft | 15 kts | 74° |
| 2026-04-16 21:39 | 50.03843 | 8.51189 | 348 ft | 19 kts | 70° |
| 2026-04-16 21:40 | 50.03896 | 8.51402 | 353 ft | 22 kts | 69° |
| 2026-04-16 21:40 | 50.03953 | 8.51644 | 355 ft | 24 kts | 70° |
| 2026-04-16 21:40 | 50.04017 | 8.51900 | 352 ft | 26 kts | 69° |
| 2026-04-16 21:40 | 50.04080 | 8.52177 | 356 ft | 27 kts | 70° |
| 2026-04-16 21:41 | 50.04148 | 8.52449 | 361 ft | 27 kts | 69° |
| 2026-04-16 21:41 | 50.04215 | 8.52735 | 363 ft | 28 kts | 71° |
| 2026-04-16 21:41 | 50.04283 | 8.53027 | 365 ft | 29 kts | 69° |
| 2026-04-16 21:41 | 50.04353 | 8.53313 | 377 ft | 27 kts | 69° |
| 2026-04-16 21:42 | 50.04401 | 8.53592 | 384 ft | 27 kts | 82° |
| 2026-04-16 21:42 | 50.04418 | 8.53913 | 384 ft | 30 kts | 83° |
| 2026-04-16 21:42 | 50.04445 | 8.54251 | 383 ft | 32 kts | 84° |
| 2026-04-16 21:42 | 50.04439 | 8.54529 | 378 ft | 27 kts | 115° |
| 2026-04-16 21:43 | 50.04332 | 8.54755 | 370 ft | 14 kts | 147° |
| 2026-04-16 21:43 | 50.04320 | 8.54764 | 372 ft | 1 kts | 159° |
| 2026-04-16 21:43 | 50.04314 | 8.54768 | 371 ft | 0 kts | 158° |
| 2026-04-16 21:43 | 50.04312 | 8.54769 | 371 ft | 2 kts | 158° |
| 2026-04-16 21:44 | 50.04279 | 8.54790 | 369 ft | 8 kts | 159° |
| 2026-04-16 21:44 | 50.04203 | 8.54834 | 365 ft | 14 kts | 159° |
| 2026-04-16 21:44 | 50.04107 | 8.54888 | 363 ft | 5 kts | 160° |
| 2026-04-16 21:44 | 50.04068 | 8.54912 | 367 ft | 7 kts | 159° |
| 2026-04-16 21:45 | 50.04025 | 8.54947 | 368 ft | 7 kts | 132° |
| 2026-04-16 21:45 | 50.04019 | 8.55023 | 368 ft | 9 kts | 72° |
| 2026-04-16 21:45 | 50.04045 | 8.55128 | 366 ft | 12 kts | 69° |
| 2026-04-16 21:45 | 50.04080 | 8.55275 | 365 ft | 16 kts | 70° |
| 2026-04-16 21:46 | 50.04123 | 8.55455 | 365 ft | 20 kts | 70° |
| 2026-04-16 21:46 | 50.04173 | 8.55666 | 365 ft | 22 kts | 70° |
| 2026-04-16 21:46 | 50.04227 | 8.55896 | 368 ft | 17 kts | 68° |
| 2026-04-16 21:46 | 50.04296 | 8.55951 | 369 ft | 11 kts | 355° |
| 2026-04-16 21:47 | 50.04364 | 8.55916 | 369 ft | 11 kts | 344° |
| 2026-04-16 21:47 | 50.04446 | 8.55917 | 366 ft | 13 kts | 13° |
| 2026-04-16 21:47 | 50.04492 | 8.55939 | 370 ft | 7 kts | 18° |
| 2026-04-16 21:47 | 50.04543 | 8.55973 | 370 ft | 3 kts | 23° |
| 2026-04-16 21:48 | 50.04568 | 8.55979 | 370 ft | 5 kts | 3° |
| 2026-04-16 21:48 | 50.04602 | 8.55966 | 368 ft | 5 kts | 340° |
| 2026-04-16 21:48 | 50.04631 | 8.55951 | 368 ft | 3 kts | 341° |
| 2026-04-16 21:48 | 50.04637 | 8.55948 | 368 ft | 2 kts | 340° |
| 2026-04-16 21:49 | 50.04641 | 8.55945 | 370 ft | 0 kts | 340° |